<?xml version="1.0" encoding="UTF-8" standalone="no" ?>
<gpx xmlns="http://www.topografix.com/GPX/1/1" xmlns:xsi="http://www.w3.org/2001/XMLSchema-instance" xsi:schemaLocation="http://www.topografix.com/GPX/1/1 http://www.topografix.com/GPX/1/1/gpx.xsd" version="1.1" creator="VisuGPX - https://www.visugpx.com">
  <metadata>
    <name>plomb du Cantal depuis le buron de la Tuillière</name>
    <desc><![CDATA[Au départ du buron de la Tuillière,un bel itinéraire, facile mais long, pour monter au Plomb du Cantal, avec un panorama magnifique tout au long du parcours]]></desc>
  </metadata>
  <trk>
    <name><![CDATA[plomb du Cantal depuis le buron de la Tullière]]></name>
    <trkseg>
      <trkpt lat="44.99853" lon="2.69296">
        <ele>1362</ele>
        <time>2022-10-03T09:50:23+02:00</time>
      </trkpt>
      <trkpt lat="44.99887" lon="2.69338">
        <ele>1364</ele>
        <time>2022-10-03T09:51:17+02:00</time>
      </trkpt>
      <trkpt lat="44.99914" lon="2.69364">
        <ele>1359</ele>
        <time>2022-10-03T09:52:16+02:00</time>
      </trkpt>
      <trkpt lat="44.99923" lon="2.69395">
        <ele>1360</ele>
        <time>2022-10-03T09:52:26+02:00</time>
      </trkpt>
      <trkpt lat="44.99936" lon="2.69421">
        <ele>1357</ele>
        <time>2022-10-03T09:52:43+02:00</time>
      </trkpt>
      <trkpt lat="44.99951" lon="2.69445">
        <ele>1354</ele>
        <time>2022-10-03T09:53:01+02:00</time>
      </trkpt>
      <trkpt lat="44.99964" lon="2.69474">
        <ele>1351</ele>
        <time>2022-10-03T09:53:20+02:00</time>
      </trkpt>
      <trkpt lat="44.99975" lon="2.69502">
        <ele>1349</ele>
        <time>2022-10-03T09:53:41+02:00</time>
      </trkpt>
      <trkpt lat="44.99988" lon="2.6953">
        <ele>1348</ele>
        <time>2022-10-03T09:54:02+02:00</time>
      </trkpt>
      <trkpt lat="45.00003" lon="2.69556">
        <ele>1356</ele>
        <time>2022-10-03T09:54:21+02:00</time>
      </trkpt>
      <trkpt lat="45.00018" lon="2.69579">
        <ele>1349</ele>
        <time>2022-10-03T09:54:53+02:00</time>
      </trkpt>
      <trkpt lat="45.00036" lon="2.696">
        <ele>1344</ele>
        <time>2022-10-03T09:55:15+02:00</time>
      </trkpt>
      <trkpt lat="45.00051" lon="2.69624">
        <ele>1342</ele>
        <time>2022-10-03T09:55:35+02:00</time>
      </trkpt>
      <trkpt lat="45.00067" lon="2.69648">
        <ele>1342</ele>
        <time>2022-10-03T09:55:59+02:00</time>
      </trkpt>
      <trkpt lat="45.00088" lon="2.69706">
        <ele>1340</ele>
        <time>2022-10-03T09:56:44+02:00</time>
      </trkpt>
      <trkpt lat="45.00101" lon="2.69734">
        <ele>1337</ele>
        <time>2022-10-03T09:57:22+02:00</time>
      </trkpt>
      <trkpt lat="45.00113" lon="2.69761">
        <ele>1335</ele>
        <time>2022-10-03T09:57:41+02:00</time>
      </trkpt>
      <trkpt lat="45.00126" lon="2.69788">
        <ele>1331</ele>
        <time>2022-10-03T09:58:01+02:00</time>
      </trkpt>
      <trkpt lat="45.0014" lon="2.69813">
        <ele>1330</ele>
        <time>2022-10-03T09:58:27+02:00</time>
      </trkpt>
      <trkpt lat="45.00155" lon="2.69839">
        <ele>1327</ele>
        <time>2022-10-03T09:58:47+02:00</time>
      </trkpt>
      <trkpt lat="45.0017" lon="2.69864">
        <ele>1326</ele>
        <time>2022-10-03T09:59:06+02:00</time>
      </trkpt>
      <trkpt lat="45.0018" lon="2.69893">
        <ele>1325</ele>
        <time>2022-10-03T09:59:28+02:00</time>
      </trkpt>
      <trkpt lat="45.00192" lon="2.69921">
        <ele>1326</ele>
        <time>2022-10-03T09:59:46+02:00</time>
      </trkpt>
      <trkpt lat="45.00202" lon="2.69951">
        <ele>1330</ele>
        <time>2022-10-03T10:00:04+02:00</time>
      </trkpt>
      <trkpt lat="45.00214" lon="2.69978">
        <ele>1332</ele>
        <time>2022-10-03T10:00:26+02:00</time>
      </trkpt>
      <trkpt lat="45.00224" lon="2.70008">
        <ele>1329</ele>
        <time>2022-10-03T10:00:48+02:00</time>
      </trkpt>
      <trkpt lat="45.00245" lon="2.70054">
        <ele>1329</ele>
        <time>2022-10-03T10:02:14+02:00</time>
      </trkpt>
      <trkpt lat="45.0026" lon="2.70078">
        <ele>1328</ele>
        <time>2022-10-03T10:02:30+02:00</time>
      </trkpt>
      <trkpt lat="45.0027" lon="2.70109">
        <ele>1327</ele>
        <time>2022-10-03T10:02:51+02:00</time>
      </trkpt>
      <trkpt lat="45.00284" lon="2.70134">
        <ele>1329</ele>
        <time>2022-10-03T10:03:10+02:00</time>
      </trkpt>
      <trkpt lat="45.00293" lon="2.70164">
        <ele>1332</ele>
        <time>2022-10-03T10:03:32+02:00</time>
      </trkpt>
      <trkpt lat="45.00305" lon="2.70193">
        <ele>1330</ele>
        <time>2022-10-03T10:03:52+02:00</time>
      </trkpt>
      <trkpt lat="45.00316" lon="2.70222">
        <ele>1330</ele>
        <time>2022-10-03T10:04:12+02:00</time>
      </trkpt>
      <trkpt lat="45.00332" lon="2.70247">
        <ele>1332</ele>
        <time>2022-10-03T10:04:33+02:00</time>
      </trkpt>
      <trkpt lat="45.00348" lon="2.70269">
        <ele>1334</ele>
        <time>2022-10-03T10:04:55+02:00</time>
      </trkpt>
      <trkpt lat="45.00381" lon="2.70313">
        <ele>1336</ele>
        <time>2022-10-03T10:05:41+02:00</time>
      </trkpt>
      <trkpt lat="45.00396" lon="2.70337">
        <ele>1341</ele>
        <time>2022-10-03T10:06:59+02:00</time>
      </trkpt>
      <trkpt lat="45.00413" lon="2.7036">
        <ele>1342</ele>
        <time>2022-10-03T10:07:32+02:00</time>
      </trkpt>
      <trkpt lat="45.00417" lon="2.70391">
        <ele>1345</ele>
        <time>2022-10-03T10:08:02+02:00</time>
      </trkpt>
      <trkpt lat="45.00419" lon="2.70423">
        <ele>1347</ele>
        <time>2022-10-03T10:09:02+02:00</time>
      </trkpt>
      <trkpt lat="45.00434" lon="2.70449">
        <ele>1347</ele>
        <time>2022-10-03T10:09:21+02:00</time>
      </trkpt>
      <trkpt lat="45.00449" lon="2.70473">
        <ele>1348</ele>
        <time>2022-10-03T10:09:42+02:00</time>
      </trkpt>
      <trkpt lat="45.00462" lon="2.70501">
        <ele>1351</ele>
        <time>2022-10-03T10:10:05+02:00</time>
      </trkpt>
      <trkpt lat="45.00473" lon="2.70529">
        <ele>1352</ele>
        <time>2022-10-03T10:10:26+02:00</time>
      </trkpt>
      <trkpt lat="45.00478" lon="2.70561">
        <ele>1348</ele>
        <time>2022-10-03T10:10:50+02:00</time>
      </trkpt>
      <trkpt lat="45.00486" lon="2.70592">
        <ele>1343</ele>
        <time>2022-10-03T10:11:15+02:00</time>
      </trkpt>
      <trkpt lat="45.00493" lon="2.70624">
        <ele>1342</ele>
        <time>2022-10-03T10:11:36+02:00</time>
      </trkpt>
      <trkpt lat="45.00499" lon="2.70656">
        <ele>1344</ele>
        <time>2022-10-03T10:11:59+02:00</time>
      </trkpt>
      <trkpt lat="45.00508" lon="2.70686">
        <ele>1348</ele>
        <time>2022-10-03T10:12:24+02:00</time>
      </trkpt>
      <trkpt lat="45.00517" lon="2.70715">
        <ele>1350</ele>
        <time>2022-10-03T10:12:50+02:00</time>
      </trkpt>
      <trkpt lat="45.00527" lon="2.70745">
        <ele>1348</ele>
        <time>2022-10-03T10:13:15+02:00</time>
      </trkpt>
      <trkpt lat="45.00532" lon="2.70777">
        <ele>1353</ele>
        <time>2022-10-03T10:13:45+02:00</time>
      </trkpt>
      <trkpt lat="45.0054" lon="2.70807">
        <ele>1358</ele>
        <time>2022-10-03T10:15:49+02:00</time>
      </trkpt>
      <trkpt lat="45.00545" lon="2.70839">
        <ele>1359</ele>
        <time>2022-10-03T10:16:15+02:00</time>
      </trkpt>
      <trkpt lat="45.00551" lon="2.7087">
        <ele>1362</ele>
        <time>2022-10-03T10:16:43+02:00</time>
      </trkpt>
      <trkpt lat="45.00558" lon="2.70901">
        <ele>1362</ele>
        <time>2022-10-03T10:17:05+02:00</time>
      </trkpt>
      <trkpt lat="45.00561" lon="2.70933">
        <ele>1361</ele>
        <time>2022-10-03T10:17:26+02:00</time>
      </trkpt>
      <trkpt lat="45.00567" lon="2.70963">
        <ele>1358</ele>
        <time>2022-10-03T10:17:48+02:00</time>
      </trkpt>
      <trkpt lat="45.00577" lon="2.70994">
        <ele>1360</ele>
        <time>2022-10-03T10:18:09+02:00</time>
      </trkpt>
      <trkpt lat="45.00594" lon="2.71016">
        <ele>1365</ele>
        <time>2022-10-03T10:19:30+02:00</time>
      </trkpt>
      <trkpt lat="45.00601" lon="2.71047">
        <ele>1364</ele>
        <time>2022-10-03T10:20:00+02:00</time>
      </trkpt>
      <trkpt lat="45.00609" lon="2.71076">
        <ele>1368</ele>
        <time>2022-10-03T10:20:27+02:00</time>
      </trkpt>
      <trkpt lat="45.00622" lon="2.71104">
        <ele>1369</ele>
        <time>2022-10-03T10:20:47+02:00</time>
      </trkpt>
      <trkpt lat="45.00634" lon="2.71132">
        <ele>1370</ele>
        <time>2022-10-03T10:21:23+02:00</time>
      </trkpt>
      <trkpt lat="45.00649" lon="2.71157">
        <ele>1373</ele>
        <time>2022-10-03T10:22:08+02:00</time>
      </trkpt>
      <trkpt lat="45.0067" lon="2.71171">
        <ele>1375</ele>
        <time>2022-10-03T10:22:29+02:00</time>
      </trkpt>
      <trkpt lat="45.00689" lon="2.71192">
        <ele>1379</ele>
        <time>2022-10-03T10:22:56+02:00</time>
      </trkpt>
      <trkpt lat="45.00708" lon="2.71209">
        <ele>1381</ele>
        <time>2022-10-03T10:23:24+02:00</time>
      </trkpt>
      <trkpt lat="45.00729" lon="2.71223">
        <ele>1383</ele>
        <time>2022-10-03T10:23:50+02:00</time>
      </trkpt>
      <trkpt lat="45.00746" lon="2.71243">
        <ele>1384</ele>
        <time>2022-10-03T10:24:15+02:00</time>
      </trkpt>
      <trkpt lat="45.00764" lon="2.71264">
        <ele>1385</ele>
        <time>2022-10-03T10:24:45+02:00</time>
      </trkpt>
      <trkpt lat="45.00784" lon="2.71279">
        <ele>1388</ele>
        <time>2022-10-03T10:25:09+02:00</time>
      </trkpt>
      <trkpt lat="45.00806" lon="2.71289">
        <ele>1389</ele>
        <time>2022-10-03T10:25:32+02:00</time>
      </trkpt>
      <trkpt lat="45.00823" lon="2.7131">
        <ele>1389</ele>
        <time>2022-10-03T10:25:55+02:00</time>
      </trkpt>
      <trkpt lat="45.00842" lon="2.71329">
        <ele>1389</ele>
        <time>2022-10-03T10:26:49+02:00</time>
      </trkpt>
      <trkpt lat="45.00864" lon="2.71336">
        <ele>1390</ele>
        <time>2022-10-03T10:27:14+02:00</time>
      </trkpt>
      <trkpt lat="45.00885" lon="2.71349">
        <ele>1392</ele>
        <time>2022-10-03T10:27:38+02:00</time>
      </trkpt>
      <trkpt lat="45.00906" lon="2.71363">
        <ele>1395</ele>
        <time>2022-10-03T10:28:03+02:00</time>
      </trkpt>
      <trkpt lat="45.00926" lon="2.7138">
        <ele>1398</ele>
        <time>2022-10-03T10:28:28+02:00</time>
      </trkpt>
      <trkpt lat="45.00945" lon="2.71397">
        <ele>1400</ele>
        <time>2022-10-03T10:28:54+02:00</time>
      </trkpt>
      <trkpt lat="45.00965" lon="2.71413">
        <ele>1402</ele>
        <time>2022-10-03T10:29:28+02:00</time>
      </trkpt>
      <trkpt lat="45.00987" lon="2.71421">
        <ele>1401</ele>
        <time>2022-10-03T10:30:54+02:00</time>
      </trkpt>
      <trkpt lat="45.01009" lon="2.71431">
        <ele>1402</ele>
        <time>2022-10-03T10:31:20+02:00</time>
      </trkpt>
      <trkpt lat="45.01029" lon="2.71445">
        <ele>1407</ele>
        <time>2022-10-03T10:31:44+02:00</time>
      </trkpt>
      <trkpt lat="45.01048" lon="2.71464">
        <ele>1409</ele>
        <time>2022-10-03T10:32:09+02:00</time>
      </trkpt>
      <trkpt lat="45.01069" lon="2.71478">
        <ele>1413</ele>
        <time>2022-10-03T10:32:37+02:00</time>
      </trkpt>
      <trkpt lat="45.01086" lon="2.71499">
        <ele>1410</ele>
        <time>2022-10-03T10:33:28+02:00</time>
      </trkpt>
      <trkpt lat="45.01103" lon="2.7152">
        <ele>1411</ele>
        <time>2022-10-03T10:33:54+02:00</time>
      </trkpt>
      <trkpt lat="45.01125" lon="2.71531">
        <ele>1415</ele>
        <time>2022-10-03T10:34:25+02:00</time>
      </trkpt>
      <trkpt lat="45.01136" lon="2.71559">
        <ele>1419</ele>
        <time>2022-10-03T10:34:47+02:00</time>
      </trkpt>
      <trkpt lat="45.01156" lon="2.71574">
        <ele>1422</ele>
        <time>2022-10-03T10:35:17+02:00</time>
      </trkpt>
      <trkpt lat="45.01169" lon="2.716">
        <ele>1426</ele>
        <time>2022-10-03T10:35:43+02:00</time>
      </trkpt>
      <trkpt lat="45.01185" lon="2.71624">
        <ele>1428</ele>
        <time>2022-10-03T10:36:59+02:00</time>
      </trkpt>
      <trkpt lat="45.01202" lon="2.71645">
        <ele>1430</ele>
        <time>2022-10-03T10:37:21+02:00</time>
      </trkpt>
      <trkpt lat="45.01219" lon="2.71667">
        <ele>1430</ele>
        <time>2022-10-03T10:37:46+02:00</time>
      </trkpt>
      <trkpt lat="45.01235" lon="2.7169">
        <ele>1431</ele>
        <time>2022-10-03T10:38:10+02:00</time>
      </trkpt>
      <trkpt lat="45.01252" lon="2.71711">
        <ele>1437</ele>
        <time>2022-10-03T10:38:33+02:00</time>
      </trkpt>
      <trkpt lat="45.01271" lon="2.7173">
        <ele>1439</ele>
        <time>2022-10-03T10:39:00+02:00</time>
      </trkpt>
      <trkpt lat="45.0129" lon="2.71747">
        <ele>1441</ele>
        <time>2022-10-03T10:39:27+02:00</time>
      </trkpt>
      <trkpt lat="45.01302" lon="2.71774">
        <ele>1445</ele>
        <time>2022-10-03T10:40:03+02:00</time>
      </trkpt>
      <trkpt lat="45.0132" lon="2.71795">
        <ele>1448</ele>
        <time>2022-10-03T10:40:36+02:00</time>
      </trkpt>
      <trkpt lat="45.01336" lon="2.71819">
        <ele>1451</ele>
        <time>2022-10-03T10:41:02+02:00</time>
      </trkpt>
      <trkpt lat="45.0135" lon="2.71844">
        <ele>1454</ele>
        <time>2022-10-03T10:41:30+02:00</time>
      </trkpt>
      <trkpt lat="45.01363" lon="2.71871">
        <ele>1458</ele>
        <time>2022-10-03T10:42:02+02:00</time>
      </trkpt>
      <trkpt lat="45.01377" lon="2.71896">
        <ele>1461</ele>
        <time>2022-10-03T10:42:30+02:00</time>
      </trkpt>
      <trkpt lat="45.01392" lon="2.7192">
        <ele>1464</ele>
        <time>2022-10-03T10:42:58+02:00</time>
      </trkpt>
      <trkpt lat="45.0141" lon="2.7194">
        <ele>1465</ele>
        <time>2022-10-03T10:43:27+02:00</time>
      </trkpt>
      <trkpt lat="45.01425" lon="2.71964">
        <ele>1468</ele>
        <time>2022-10-03T10:44:02+02:00</time>
      </trkpt>
      <trkpt lat="45.01439" lon="2.7199">
        <ele>1471</ele>
        <time>2022-10-03T10:44:29+02:00</time>
      </trkpt>
      <trkpt lat="45.01454" lon="2.72013">
        <ele>1473</ele>
        <time>2022-10-03T10:44:55+02:00</time>
      </trkpt>
      <trkpt lat="45.01471" lon="2.72036">
        <ele>1475</ele>
        <time>2022-10-03T10:45:23+02:00</time>
      </trkpt>
      <trkpt lat="45.01643" lon="2.72263">
        <ele>1508</ele>
        <time>2022-10-03T11:02:07+02:00</time>
      </trkpt>
      <trkpt lat="45.01661" lon="2.72281">
        <ele>1510</ele>
        <time>2022-10-03T11:02:35+02:00</time>
      </trkpt>
      <trkpt lat="45.01682" lon="2.72295">
        <ele>1512</ele>
        <time>2022-10-03T11:03:12+02:00</time>
      </trkpt>
      <trkpt lat="45.01699" lon="2.72317">
        <ele>1515</ele>
        <time>2022-10-03T11:03:41+02:00</time>
      </trkpt>
      <trkpt lat="45.01714" lon="2.72343">
        <ele>1519</ele>
        <time>2022-10-03T11:04:04+02:00</time>
      </trkpt>
      <trkpt lat="45.0173" lon="2.72365">
        <ele>1520</ele>
        <time>2022-10-03T11:04:29+02:00</time>
      </trkpt>
      <trkpt lat="45.01746" lon="2.72388">
        <ele>1518</ele>
        <time>2022-10-03T11:04:54+02:00</time>
      </trkpt>
      <trkpt lat="45.01766" lon="2.72403">
        <ele>1518</ele>
        <time>2022-10-03T11:05:30+02:00</time>
      </trkpt>
      <trkpt lat="45.0178" lon="2.72428">
        <ele>1528</ele>
        <time>2022-10-03T11:07:34+02:00</time>
      </trkpt>
      <trkpt lat="45.01792" lon="2.72456">
        <ele>1530</ele>
        <time>2022-10-03T11:10:17+02:00</time>
      </trkpt>
      <trkpt lat="45.01803" lon="2.72487">
        <ele>1528</ele>
        <time>2022-10-03T11:10:36+02:00</time>
      </trkpt>
      <trkpt lat="45.01814" lon="2.72516">
        <ele>1528</ele>
        <time>2022-10-03T11:10:57+02:00</time>
      </trkpt>
      <trkpt lat="45.01823" lon="2.72546">
        <ele>1526</ele>
        <time>2022-10-03T11:11:18+02:00</time>
      </trkpt>
      <trkpt lat="45.01831" lon="2.72576">
        <ele>1525</ele>
        <time>2022-10-03T11:11:38+02:00</time>
      </trkpt>
      <trkpt lat="45.01841" lon="2.72605">
        <ele>1521</ele>
        <time>2022-10-03T11:11:59+02:00</time>
      </trkpt>
      <trkpt lat="45.01852" lon="2.72635">
        <ele>1518</ele>
        <time>2022-10-03T11:12:20+02:00</time>
      </trkpt>
      <trkpt lat="45.01864" lon="2.72662">
        <ele>1517</ele>
        <time>2022-10-03T11:12:40+02:00</time>
      </trkpt>
      <trkpt lat="45.01876" lon="2.7269">
        <ele>1516</ele>
        <time>2022-10-03T11:13:00+02:00</time>
      </trkpt>
      <trkpt lat="45.0189" lon="2.72716">
        <ele>1514</ele>
        <time>2022-10-03T11:13:22+02:00</time>
      </trkpt>
      <trkpt lat="45.01903" lon="2.72742">
        <ele>1514</ele>
        <time>2022-10-03T11:13:43+02:00</time>
      </trkpt>
      <trkpt lat="45.01919" lon="2.72767">
        <ele>1516</ele>
        <time>2022-10-03T11:14:06+02:00</time>
      </trkpt>
      <trkpt lat="45.01934" lon="2.72791">
        <ele>1515</ele>
        <time>2022-10-03T11:14:29+02:00</time>
      </trkpt>
      <trkpt lat="45.0195" lon="2.72812">
        <ele>1514</ele>
        <time>2022-10-03T11:14:51+02:00</time>
      </trkpt>
      <trkpt lat="45.01968" lon="2.72833">
        <ele>1514</ele>
        <time>2022-10-03T11:15:13+02:00</time>
      </trkpt>
      <trkpt lat="45.01985" lon="2.72853">
        <ele>1518</ele>
        <time>2022-10-03T11:15:36+02:00</time>
      </trkpt>
      <trkpt lat="45.02001" lon="2.72876">
        <ele>1521</ele>
        <time>2022-10-03T11:16:02+02:00</time>
      </trkpt>
      <trkpt lat="45.02019" lon="2.72896">
        <ele>1523</ele>
        <time>2022-10-03T11:16:26+02:00</time>
      </trkpt>
      <trkpt lat="45.02037" lon="2.72916">
        <ele>1526</ele>
        <time>2022-10-03T11:16:52+02:00</time>
      </trkpt>
      <trkpt lat="45.02057" lon="2.7293">
        <ele>1527</ele>
        <time>2022-10-03T11:17:16+02:00</time>
      </trkpt>
      <trkpt lat="45.02076" lon="2.72949">
        <ele>1527</ele>
        <time>2022-10-03T11:17:41+02:00</time>
      </trkpt>
      <trkpt lat="45.02093" lon="2.72969">
        <ele>1528</ele>
        <time>2022-10-03T11:18:05+02:00</time>
      </trkpt>
      <trkpt lat="45.02111" lon="2.7299">
        <ele>1530</ele>
        <time>2022-10-03T11:18:30+02:00</time>
      </trkpt>
      <trkpt lat="45.02129" lon="2.73009">
        <ele>1532</ele>
        <time>2022-10-03T11:18:56+02:00</time>
      </trkpt>
      <trkpt lat="45.02146" lon="2.73032">
        <ele>1537</ele>
        <time>2022-10-03T11:19:23+02:00</time>
      </trkpt>
      <trkpt lat="45.02164" lon="2.73053">
        <ele>1541</ele>
        <time>2022-10-03T11:19:48+02:00</time>
      </trkpt>
      <trkpt lat="45.02181" lon="2.73076">
        <ele>1542</ele>
        <time>2022-10-03T11:20:14+02:00</time>
      </trkpt>
      <trkpt lat="45.02199" lon="2.73095">
        <ele>1543</ele>
        <time>2022-10-03T11:20:42+02:00</time>
      </trkpt>
      <trkpt lat="45.02215" lon="2.73118">
        <ele>1540</ele>
        <time>2022-10-03T11:21:41+02:00</time>
      </trkpt>
      <trkpt lat="45.02236" lon="2.73134">
        <ele>1540</ele>
        <time>2022-10-03T11:22:11+02:00</time>
      </trkpt>
      <trkpt lat="45.02257" lon="2.73147">
        <ele>1544</ele>
        <time>2022-10-03T11:22:38+02:00</time>
      </trkpt>
      <trkpt lat="45.02279" lon="2.73158">
        <ele>1547</ele>
        <time>2022-10-03T11:23:03+02:00</time>
      </trkpt>
      <trkpt lat="45.02301" lon="2.73168">
        <ele>1552</ele>
        <time>2022-10-03T11:23:28+02:00</time>
      </trkpt>
      <trkpt lat="45.02341" lon="2.73195">
        <ele>1555</ele>
        <time>2022-10-03T11:24:20+02:00</time>
      </trkpt>
      <trkpt lat="45.02364" lon="2.73195">
        <ele>1560</ele>
        <time>2022-10-03T11:24:49+02:00</time>
      </trkpt>
      <trkpt lat="45.02385" lon="2.73207">
        <ele>1562</ele>
        <time>2022-10-03T11:25:35+02:00</time>
      </trkpt>
      <trkpt lat="45.02406" lon="2.73222">
        <ele>1564</ele>
        <time>2022-10-03T11:26:06+02:00</time>
      </trkpt>
      <trkpt lat="45.02417" lon="2.7325">
        <ele>1568</ele>
        <time>2022-10-03T11:26:35+02:00</time>
      </trkpt>
      <trkpt lat="45.02426" lon="2.73279">
        <ele>1568</ele>
        <time>2022-10-03T11:27:41+02:00</time>
      </trkpt>
      <trkpt lat="45.02425" lon="2.73247">
        <ele>1570</ele>
        <time>2022-10-03T11:30:21+02:00</time>
      </trkpt>
      <trkpt lat="45.02447" lon="2.73234">
        <ele>1568</ele>
        <time>2022-10-03T11:31:07+02:00</time>
      </trkpt>
      <trkpt lat="45.02469" lon="2.73229">
        <ele>1571</ele>
        <time>2022-10-03T11:31:38+02:00</time>
      </trkpt>
      <trkpt lat="45.02492" lon="2.73228">
        <ele>1574</ele>
        <time>2022-10-03T11:32:02+02:00</time>
      </trkpt>
      <trkpt lat="45.02513" lon="2.73241">
        <ele>1578</ele>
        <time>2022-10-03T11:32:28+02:00</time>
      </trkpt>
      <trkpt lat="45.02535" lon="2.73254">
        <ele>1582</ele>
        <time>2022-10-03T11:32:53+02:00</time>
      </trkpt>
      <trkpt lat="45.02556" lon="2.73267">
        <ele>1585</ele>
        <time>2022-10-03T11:33:18+02:00</time>
      </trkpt>
      <trkpt lat="45.02577" lon="2.7328">
        <ele>1584</ele>
        <time>2022-10-03T11:33:40+02:00</time>
      </trkpt>
      <trkpt lat="45.02597" lon="2.73298">
        <ele>1583</ele>
        <time>2022-10-03T11:34:18+02:00</time>
      </trkpt>
      <trkpt lat="45.02617" lon="2.73312">
        <ele>1581</ele>
        <time>2022-10-03T11:34:39+02:00</time>
      </trkpt>
      <trkpt lat="45.02639" lon="2.73324">
        <ele>1583</ele>
        <time>2022-10-03T11:35:00+02:00</time>
      </trkpt>
      <trkpt lat="45.02658" lon="2.73342">
        <ele>1586</ele>
        <time>2022-10-03T11:35:22+02:00</time>
      </trkpt>
      <trkpt lat="45.02677" lon="2.73359">
        <ele>1587</ele>
        <time>2022-10-03T11:35:43+02:00</time>
      </trkpt>
      <trkpt lat="45.02696" lon="2.73377">
        <ele>1587</ele>
        <time>2022-10-03T11:36:08+02:00</time>
      </trkpt>
      <trkpt lat="45.02716" lon="2.73393">
        <ele>1590</ele>
        <time>2022-10-03T11:36:41+02:00</time>
      </trkpt>
      <trkpt lat="45.02733" lon="2.73415">
        <ele>1590</ele>
        <time>2022-10-03T11:37:03+02:00</time>
      </trkpt>
      <trkpt lat="45.02749" lon="2.73438">
        <ele>1588</ele>
        <time>2022-10-03T11:37:26+02:00</time>
      </trkpt>
      <trkpt lat="45.02769" lon="2.73453">
        <ele>1590</ele>
        <time>2022-10-03T11:37:50+02:00</time>
      </trkpt>
      <trkpt lat="45.0279" lon="2.73467">
        <ele>1594</ele>
        <time>2022-10-03T11:38:10+02:00</time>
      </trkpt>
      <trkpt lat="45.02813" lon="2.73468">
        <ele>1593</ele>
        <time>2022-10-03T11:38:32+02:00</time>
      </trkpt>
      <trkpt lat="45.02833" lon="2.73487">
        <ele>1593</ele>
        <time>2022-10-03T11:38:53+02:00</time>
      </trkpt>
      <trkpt lat="45.02852" lon="2.73507">
        <ele>1593</ele>
        <time>2022-10-03T11:39:15+02:00</time>
      </trkpt>
      <trkpt lat="45.02863" lon="2.73534">
        <ele>1595</ele>
        <time>2022-10-03T11:39:35+02:00</time>
      </trkpt>
      <trkpt lat="45.02882" lon="2.73553">
        <ele>1598</ele>
        <time>2022-10-03T11:39:58+02:00</time>
      </trkpt>
      <trkpt lat="45.02902" lon="2.73567">
        <ele>1599</ele>
        <time>2022-10-03T11:40:24+02:00</time>
      </trkpt>
      <trkpt lat="45.02923" lon="2.7358">
        <ele>1601</ele>
        <time>2022-10-03T11:40:47+02:00</time>
      </trkpt>
      <trkpt lat="45.02943" lon="2.73597">
        <ele>1601</ele>
        <time>2022-10-03T11:41:16+02:00</time>
      </trkpt>
      <trkpt lat="45.02965" lon="2.73604">
        <ele>1603</ele>
        <time>2022-10-03T11:41:43+02:00</time>
      </trkpt>
      <trkpt lat="45.02985" lon="2.7362">
        <ele>1602</ele>
        <time>2022-10-03T11:42:14+02:00</time>
      </trkpt>
      <trkpt lat="45.03003" lon="2.73639">
        <ele>1603</ele>
        <time>2022-10-03T11:42:53+02:00</time>
      </trkpt>
      <trkpt lat="45.03023" lon="2.73655">
        <ele>1605</ele>
        <time>2022-10-03T11:43:24+02:00</time>
      </trkpt>
      <trkpt lat="45.03043" lon="2.73671">
        <ele>1609</ele>
        <time>2022-10-03T11:43:52+02:00</time>
      </trkpt>
      <trkpt lat="45.03064" lon="2.73682">
        <ele>1612</ele>
        <time>2022-10-03T11:44:23+02:00</time>
      </trkpt>
      <trkpt lat="45.03083" lon="2.73702">
        <ele>1614</ele>
        <time>2022-10-03T11:44:52+02:00</time>
      </trkpt>
      <trkpt lat="45.03103" lon="2.73716">
        <ele>1616</ele>
        <time>2022-10-03T11:45:20+02:00</time>
      </trkpt>
      <trkpt lat="45.0312" lon="2.73738">
        <ele>1622</ele>
        <time>2022-10-03T11:45:49+02:00</time>
      </trkpt>
      <trkpt lat="45.03141" lon="2.73753">
        <ele>1625</ele>
        <time>2022-10-03T11:46:19+02:00</time>
      </trkpt>
      <trkpt lat="45.03161" lon="2.73768">
        <ele>1624</ele>
        <time>2022-10-03T11:47:13+02:00</time>
      </trkpt>
      <trkpt lat="45.0318" lon="2.73786">
        <ele>1625</ele>
        <time>2022-10-03T11:47:33+02:00</time>
      </trkpt>
      <trkpt lat="45.03202" lon="2.738">
        <ele>1624</ele>
        <time>2022-10-03T11:47:57+02:00</time>
      </trkpt>
      <trkpt lat="45.03224" lon="2.73811">
        <ele>1624</ele>
        <time>2022-10-03T11:48:19+02:00</time>
      </trkpt>
      <trkpt lat="45.03244" lon="2.73825">
        <ele>1627</ele>
        <time>2022-10-03T11:48:40+02:00</time>
      </trkpt>
      <trkpt lat="45.03266" lon="2.73837">
        <ele>1628</ele>
        <time>2022-10-03T11:49:02+02:00</time>
      </trkpt>
      <trkpt lat="45.03286" lon="2.73852">
        <ele>1628</ele>
        <time>2022-10-03T11:49:24+02:00</time>
      </trkpt>
      <trkpt lat="45.03307" lon="2.73866">
        <ele>1628</ele>
        <time>2022-10-03T11:49:48+02:00</time>
      </trkpt>
      <trkpt lat="45.03328" lon="2.73879">
        <ele>1629</ele>
        <time>2022-10-03T11:50:11+02:00</time>
      </trkpt>
      <trkpt lat="45.03349" lon="2.73893">
        <ele>1629</ele>
        <time>2022-10-03T11:50:34+02:00</time>
      </trkpt>
      <trkpt lat="45.0339" lon="2.73919">
        <ele>1633</ele>
        <time>2022-10-03T11:51:22+02:00</time>
      </trkpt>
      <trkpt lat="45.0341" lon="2.73934">
        <ele>1634</ele>
        <time>2022-10-03T11:51:46+02:00</time>
      </trkpt>
      <trkpt lat="45.03431" lon="2.73949">
        <ele>1635</ele>
        <time>2022-10-03T11:52:11+02:00</time>
      </trkpt>
      <trkpt lat="45.03452" lon="2.73962">
        <ele>1636</ele>
        <time>2022-10-03T11:53:08+02:00</time>
      </trkpt>
      <trkpt lat="45.0347" lon="2.73982">
        <ele>1637</ele>
        <time>2022-10-03T11:53:30+02:00</time>
      </trkpt>
      <trkpt lat="45.03491" lon="2.73997">
        <ele>1634</ele>
        <time>2022-10-03T11:54:00+02:00</time>
      </trkpt>
      <trkpt lat="45.03514" lon="2.73997">
        <ele>1633</ele>
        <time>2022-10-03T11:55:30+02:00</time>
      </trkpt>
      <trkpt lat="45.03536" lon="2.74003">
        <ele>1629</ele>
        <time>2022-10-03T11:56:04+02:00</time>
      </trkpt>
      <trkpt lat="45.03559" lon="2.74011">
        <ele>1619</ele>
        <time>2022-10-03T11:56:29+02:00</time>
      </trkpt>
      <trkpt lat="45.0358" lon="2.74023">
        <ele>1615</ele>
        <time>2022-10-03T11:57:02+02:00</time>
      </trkpt>
      <trkpt lat="45.03598" lon="2.74043">
        <ele>1620</ele>
        <time>2022-10-03T11:58:06+02:00</time>
      </trkpt>
      <trkpt lat="45.03619" lon="2.74052">
        <ele>1619</ele>
        <time>2022-10-03T11:58:32+02:00</time>
      </trkpt>
      <trkpt lat="45.03642" lon="2.74055">
        <ele>1624</ele>
        <time>2022-10-03T11:59:40+02:00</time>
      </trkpt>
      <trkpt lat="45.03664" lon="2.74065">
        <ele>1628</ele>
        <time>2022-10-03T12:00:09+02:00</time>
      </trkpt>
      <trkpt lat="45.03684" lon="2.74081">
        <ele>1631</ele>
        <time>2022-10-03T12:00:38+02:00</time>
      </trkpt>
      <trkpt lat="45.03703" lon="2.74099">
        <ele>1635</ele>
        <time>2022-10-03T12:01:04+02:00</time>
      </trkpt>
      <trkpt lat="45.03722" lon="2.74117">
        <ele>1640</ele>
        <time>2022-10-03T12:02:16+02:00</time>
      </trkpt>
      <trkpt lat="45.03743" lon="2.7413">
        <ele>1643</ele>
        <time>2022-10-03T12:02:45+02:00</time>
      </trkpt>
      <trkpt lat="45.03761" lon="2.74149">
        <ele>1645</ele>
        <time>2022-10-03T12:03:11+02:00</time>
      </trkpt>
      <trkpt lat="45.03781" lon="2.74166">
        <ele>1650</ele>
        <time>2022-10-03T12:03:38+02:00</time>
      </trkpt>
      <trkpt lat="45.03801" lon="2.74182">
        <ele>1648</ele>
        <time>2022-10-03T12:04:45+02:00</time>
      </trkpt>
      <trkpt lat="45.0382" lon="2.74199">
        <ele>1650</ele>
        <time>2022-10-03T12:05:11+02:00</time>
      </trkpt>
      <trkpt lat="45.03841" lon="2.74212">
        <ele>1657</ele>
        <time>2022-10-03T12:05:43+02:00</time>
      </trkpt>
      <trkpt lat="45.03864" lon="2.74218">
        <ele>1662</ele>
        <time>2022-10-03T12:06:12+02:00</time>
      </trkpt>
      <trkpt lat="45.03884" lon="2.74232">
        <ele>1666</ele>
        <time>2022-10-03T12:06:43+02:00</time>
      </trkpt>
      <trkpt lat="45.03907" lon="2.74238">
        <ele>1665</ele>
        <time>2022-10-03T12:07:23+02:00</time>
      </trkpt>
      <trkpt lat="45.0393" lon="2.74247">
        <ele>1663</ele>
        <time>2022-10-03T12:07:47+02:00</time>
      </trkpt>
      <trkpt lat="45.03948" lon="2.74266">
        <ele>1663</ele>
        <time>2022-10-03T12:08:08+02:00</time>
      </trkpt>
      <trkpt lat="45.03967" lon="2.74284">
        <ele>1665</ele>
        <time>2022-10-03T12:08:31+02:00</time>
      </trkpt>
      <trkpt lat="45.03987" lon="2.74299">
        <ele>1666</ele>
        <time>2022-10-03T12:08:54+02:00</time>
      </trkpt>
      <trkpt lat="45.04009" lon="2.74311">
        <ele>1662</ele>
        <time>2022-10-03T12:09:15+02:00</time>
      </trkpt>
      <trkpt lat="45.04028" lon="2.74327">
        <ele>1662</ele>
        <time>2022-10-03T12:09:38+02:00</time>
      </trkpt>
      <trkpt lat="45.04047" lon="2.74348">
        <ele>1665</ele>
        <time>2022-10-03T12:09:59+02:00</time>
      </trkpt>
      <trkpt lat="45.04062" lon="2.74371">
        <ele>1665</ele>
        <time>2022-10-03T12:10:20+02:00</time>
      </trkpt>
      <trkpt lat="45.04077" lon="2.74395">
        <ele>1666</ele>
        <time>2022-10-03T12:10:44+02:00</time>
      </trkpt>
      <trkpt lat="45.04092" lon="2.7442">
        <ele>1669</ele>
        <time>2022-10-03T12:11:14+02:00</time>
      </trkpt>
      <trkpt lat="45.04107" lon="2.74444">
        <ele>1670</ele>
        <time>2022-10-03T12:11:47+02:00</time>
      </trkpt>
      <trkpt lat="45.04121" lon="2.7447">
        <ele>1673</ele>
        <time>2022-10-03T12:12:19+02:00</time>
      </trkpt>
      <trkpt lat="45.04138" lon="2.74492">
        <ele>1677</ele>
        <time>2022-10-03T12:12:48+02:00</time>
      </trkpt>
      <trkpt lat="45.04152" lon="2.74516">
        <ele>1679</ele>
        <time>2022-10-03T12:13:23+02:00</time>
      </trkpt>
      <trkpt lat="45.04172" lon="2.7453">
        <ele>1681</ele>
        <time>2022-10-03T12:14:04+02:00</time>
      </trkpt>
      <trkpt lat="45.04193" lon="2.74542">
        <ele>1686</ele>
        <time>2022-10-03T12:14:44+02:00</time>
      </trkpt>
      <trkpt lat="45.04211" lon="2.74562">
        <ele>1694</ele>
        <time>2022-10-03T12:15:22+02:00</time>
      </trkpt>
      <trkpt lat="45.04222" lon="2.74591">
        <ele>1695</ele>
        <time>2022-10-03T12:17:00+02:00</time>
      </trkpt>
      <trkpt lat="45.04232" lon="2.74619">
        <ele>1694</ele>
        <time>2022-10-03T12:17:18+02:00</time>
      </trkpt>
      <trkpt lat="45.04232" lon="2.74652">
        <ele>1692</ele>
        <time>2022-10-03T12:17:39+02:00</time>
      </trkpt>
      <trkpt lat="45.04251" lon="2.7467">
        <ele>1692</ele>
        <time>2022-10-03T12:18:17+02:00</time>
      </trkpt>
      <trkpt lat="45.04271" lon="2.74686">
        <ele>1693</ele>
        <time>2022-10-03T12:19:03+02:00</time>
      </trkpt>
      <trkpt lat="45.04284" lon="2.74712">
        <ele>1687</ele>
        <time>2022-10-03T12:19:48+02:00</time>
      </trkpt>
      <trkpt lat="45.04302" lon="2.74732">
        <ele>1687</ele>
        <time>2022-10-03T12:20:21+02:00</time>
      </trkpt>
      <trkpt lat="45.04321" lon="2.74751">
        <ele>1689</ele>
        <time>2022-10-03T12:20:42+02:00</time>
      </trkpt>
      <trkpt lat="45.04341" lon="2.74766">
        <ele>1690</ele>
        <time>2022-10-03T12:21:03+02:00</time>
      </trkpt>
      <trkpt lat="45.04359" lon="2.74786">
        <ele>1689</ele>
        <time>2022-10-03T12:21:26+02:00</time>
      </trkpt>
      <trkpt lat="45.04375" lon="2.7481">
        <ele>1688</ele>
        <time>2022-10-03T12:21:47+02:00</time>
      </trkpt>
      <trkpt lat="45.04403" lon="2.7484">
        <ele>1689</ele>
        <time>2022-10-03T12:24:55+02:00</time>
      </trkpt>
      <trkpt lat="45.04426" lon="2.74843">
        <ele>1693</ele>
        <time>2022-10-03T12:25:15+02:00</time>
      </trkpt>
      <trkpt lat="45.04444" lon="2.74863">
        <ele>1687</ele>
        <time>2022-10-03T12:25:53+02:00</time>
      </trkpt>
      <trkpt lat="45.04457" lon="2.7489">
        <ele>1689</ele>
        <time>2022-10-03T12:26:26+02:00</time>
      </trkpt>
      <trkpt lat="45.0448" lon="2.74899">
        <ele>1688</ele>
        <time>2022-10-03T12:27:02+02:00</time>
      </trkpt>
      <trkpt lat="45.04501" lon="2.74914">
        <ele>1682</ele>
        <time>2022-10-03T12:27:31+02:00</time>
      </trkpt>
      <trkpt lat="45.04521" lon="2.7493">
        <ele>1677</ele>
        <time>2022-10-03T12:27:55+02:00</time>
      </trkpt>
      <trkpt lat="45.04541" lon="2.74945">
        <ele>1676</ele>
        <time>2022-10-03T12:28:28+02:00</time>
      </trkpt>
      <trkpt lat="45.04563" lon="2.74943">
        <ele>1678</ele>
        <time>2022-10-03T12:28:51+02:00</time>
      </trkpt>
      <trkpt lat="45.04586" lon="2.7495">
        <ele>1680</ele>
        <time>2022-10-03T12:29:14+02:00</time>
      </trkpt>
      <trkpt lat="45.04607" lon="2.74961">
        <ele>1679</ele>
        <time>2022-10-03T12:29:37+02:00</time>
      </trkpt>
      <trkpt lat="45.04628" lon="2.74974">
        <ele>1680</ele>
        <time>2022-10-03T12:30:01+02:00</time>
      </trkpt>
      <trkpt lat="45.0465" lon="2.74983">
        <ele>1680</ele>
        <time>2022-10-03T12:30:29+02:00</time>
      </trkpt>
      <trkpt lat="45.0467" lon="2.74999">
        <ele>1676</ele>
        <time>2022-10-03T12:30:54+02:00</time>
      </trkpt>
      <trkpt lat="45.04691" lon="2.75009">
        <ele>1674</ele>
        <time>2022-10-03T12:31:16+02:00</time>
      </trkpt>
      <trkpt lat="45.04712" lon="2.75022">
        <ele>1678</ele>
        <time>2022-10-03T12:35:52+02:00</time>
      </trkpt>
      <trkpt lat="45.0473" lon="2.75043">
        <ele>1674</ele>
        <time>2022-10-03T12:36:17+02:00</time>
      </trkpt>
      <trkpt lat="45.04742" lon="2.75071">
        <ele>1671</ele>
        <time>2022-10-03T12:36:38+02:00</time>
      </trkpt>
      <trkpt lat="45.04769" lon="2.75122">
        <ele>1672</ele>
        <time>2022-10-03T12:37:26+02:00</time>
      </trkpt>
      <trkpt lat="45.04782" lon="2.75149">
        <ele>1672</ele>
        <time>2022-10-03T12:40:09+02:00</time>
      </trkpt>
      <trkpt lat="45.04801" lon="2.75168">
        <ele>1669</ele>
        <time>2022-10-03T12:40:33+02:00</time>
      </trkpt>
      <trkpt lat="45.04821" lon="2.75183">
        <ele>1667</ele>
        <time>2022-10-03T12:40:52+02:00</time>
      </trkpt>
      <trkpt lat="45.04841" lon="2.75198">
        <ele>1670</ele>
        <time>2022-10-03T12:41:14+02:00</time>
      </trkpt>
      <trkpt lat="45.04863" lon="2.75214">
        <ele>1672</ele>
        <time>2022-10-03T12:43:38+02:00</time>
      </trkpt>
      <trkpt lat="45.04882" lon="2.75232">
        <ele>1677</ele>
        <time>2022-10-03T12:44:24+02:00</time>
      </trkpt>
      <trkpt lat="45.04903" lon="2.75245">
        <ele>1681</ele>
        <time>2022-10-03T12:44:48+02:00</time>
      </trkpt>
      <trkpt lat="45.04923" lon="2.7526">
        <ele>1685</ele>
        <time>2022-10-03T12:45:19+02:00</time>
      </trkpt>
      <trkpt lat="45.04944" lon="2.75275">
        <ele>1685</ele>
        <time>2022-10-03T12:45:48+02:00</time>
      </trkpt>
      <trkpt lat="45.04964" lon="2.75289">
        <ele>1688</ele>
        <time>2022-10-03T12:46:12+02:00</time>
      </trkpt>
      <trkpt lat="45.04986" lon="2.75299">
        <ele>1689</ele>
        <time>2022-10-03T12:47:16+02:00</time>
      </trkpt>
      <trkpt lat="45.05008" lon="2.75309">
        <ele>1695</ele>
        <time>2022-10-03T12:47:44+02:00</time>
      </trkpt>
      <trkpt lat="45.05031" lon="2.75306">
        <ele>1697</ele>
        <time>2022-10-03T12:48:10+02:00</time>
      </trkpt>
      <trkpt lat="45.05054" lon="2.75304">
        <ele>1702</ele>
        <time>2022-10-03T12:48:34+02:00</time>
      </trkpt>
      <trkpt lat="45.05077" lon="2.7531">
        <ele>1706</ele>
        <time>2022-10-03T12:49:06+02:00</time>
      </trkpt>
      <trkpt lat="45.05099" lon="2.75315">
        <ele>1709</ele>
        <time>2022-10-03T12:49:40+02:00</time>
      </trkpt>
      <trkpt lat="45.05119" lon="2.7533">
        <ele>1710</ele>
        <time>2022-10-03T12:50:08+02:00</time>
      </trkpt>
      <trkpt lat="45.0514" lon="2.75344">
        <ele>1712</ele>
        <time>2022-10-03T12:50:43+02:00</time>
      </trkpt>
      <trkpt lat="45.0516" lon="2.7536">
        <ele>1715</ele>
        <time>2022-10-03T12:51:14+02:00</time>
      </trkpt>
      <trkpt lat="45.05176" lon="2.75383">
        <ele>1721</ele>
        <time>2022-10-03T12:51:49+02:00</time>
      </trkpt>
      <trkpt lat="45.05196" lon="2.75398">
        <ele>1726</ele>
        <time>2022-10-03T12:53:21+02:00</time>
      </trkpt>
      <trkpt lat="45.05218" lon="2.75406">
        <ele>1725</ele>
        <time>2022-10-03T12:53:49+02:00</time>
      </trkpt>
      <trkpt lat="45.05239" lon="2.75419">
        <ele>1727</ele>
        <time>2022-10-03T12:54:21+02:00</time>
      </trkpt>
      <trkpt lat="45.05261" lon="2.75415">
        <ele>1729</ele>
        <time>2022-10-03T12:54:56+02:00</time>
      </trkpt>
      <trkpt lat="45.05284" lon="2.75412">
        <ele>1735</ele>
        <time>2022-10-03T12:55:37+02:00</time>
      </trkpt>
      <trkpt lat="45.05306" lon="2.75411">
        <ele>1741</ele>
        <time>2022-10-03T12:56:13+02:00</time>
      </trkpt>
      <trkpt lat="45.05329" lon="2.75413">
        <ele>1747</ele>
        <time>2022-10-03T12:56:54+02:00</time>
      </trkpt>
      <trkpt lat="45.05352" lon="2.75412">
        <ele>1756</ele>
        <time>2022-10-03T12:57:36+02:00</time>
      </trkpt>
      <trkpt lat="45.05374" lon="2.75406">
        <ele>1760</ele>
        <time>2022-10-03T12:58:18+02:00</time>
      </trkpt>
      <trkpt lat="45.05396" lon="2.75399">
        <ele>1765</ele>
        <time>2022-10-03T12:58:57+02:00</time>
      </trkpt>
      <trkpt lat="45.05419" lon="2.75402">
        <ele>1768</ele>
        <time>2022-10-03T12:59:37+02:00</time>
      </trkpt>
      <trkpt lat="45.0544" lon="2.75411">
        <ele>1776</ele>
        <time>2022-10-03T13:00:23+02:00</time>
      </trkpt>
      <trkpt lat="45.0545" lon="2.7544">
        <ele>1780</ele>
        <time>2022-10-03T13:01:06+02:00</time>
      </trkpt>
      <trkpt lat="45.05454" lon="2.75472">
        <ele>1782</ele>
        <time>2022-10-03T13:04:26+02:00</time>
      </trkpt>
      <trkpt lat="45.05458" lon="2.75505">
        <ele>1785</ele>
        <time>2022-10-03T13:04:46+02:00</time>
      </trkpt>
      <trkpt lat="45.0546" lon="2.75538">
        <ele>1783</ele>
        <time>2022-10-03T13:05:08+02:00</time>
      </trkpt>
      <trkpt lat="45.05469" lon="2.75568">
        <ele>1782</ele>
        <time>2022-10-03T13:05:28+02:00</time>
      </trkpt>
      <trkpt lat="45.05473" lon="2.75601">
        <ele>1779</ele>
        <time>2022-10-03T13:05:52+02:00</time>
      </trkpt>
      <trkpt lat="45.05487" lon="2.75661">
        <ele>1781</ele>
        <time>2022-10-03T13:06:30+02:00</time>
      </trkpt>
      <trkpt lat="45.055" lon="2.75688">
        <ele>1785</ele>
        <time>2022-10-03T13:06:54+02:00</time>
      </trkpt>
      <trkpt lat="45.05514" lon="2.75714">
        <ele>1787</ele>
        <time>2022-10-03T13:07:17+02:00</time>
      </trkpt>
      <trkpt lat="45.05528" lon="2.75739">
        <ele>1787</ele>
        <time>2022-10-03T13:07:43+02:00</time>
      </trkpt>
      <trkpt lat="45.05541" lon="2.75764">
        <ele>1786</ele>
        <time>2022-10-03T13:08:13+02:00</time>
      </trkpt>
      <trkpt lat="45.05554" lon="2.75791">
        <ele>1789</ele>
        <time>2022-10-03T13:08:46+02:00</time>
      </trkpt>
      <trkpt lat="45.05566" lon="2.75819">
        <ele>1793</ele>
        <time>2022-10-03T13:09:30+02:00</time>
      </trkpt>
      <trkpt lat="45.05583" lon="2.7584">
        <ele>1794</ele>
        <time>2022-10-03T13:10:02+02:00</time>
      </trkpt>
      <trkpt lat="45.05599" lon="2.75864">
        <ele>1792</ele>
        <time>2022-10-03T13:10:30+02:00</time>
      </trkpt>
      <trkpt lat="45.0561" lon="2.75892">
        <ele>1801</ele>
        <time>2022-10-03T13:14:40+02:00</time>
      </trkpt>
      <trkpt lat="45.0562" lon="2.75921">
        <ele>1805</ele>
        <time>2022-10-03T13:15:02+02:00</time>
      </trkpt>
      <trkpt lat="45.0563" lon="2.75951">
        <ele>1811</ele>
        <time>2022-10-03T13:15:41+02:00</time>
      </trkpt>
      <trkpt lat="45.05635" lon="2.75982">
        <ele>1812</ele>
        <time>2022-10-03T13:16:01+02:00</time>
      </trkpt>
      <trkpt lat="45.05648" lon="2.7601">
        <ele>1818</ele>
        <time>2022-10-03T13:16:38+02:00</time>
      </trkpt>
      <trkpt lat="45.05664" lon="2.76035">
        <ele>1813</ele>
        <time>2022-10-03T13:17:19+02:00</time>
      </trkpt>
      <trkpt lat="45.05676" lon="2.76063">
        <ele>1816</ele>
        <time>2022-10-03T13:17:42+02:00</time>
      </trkpt>
      <trkpt lat="45.05696" lon="2.76079">
        <ele>1816</ele>
        <time>2022-10-03T13:18:23+02:00</time>
      </trkpt>
      <trkpt lat="45.05717" lon="2.76091">
        <ele>1814</ele>
        <time>2022-10-03T13:18:51+02:00</time>
      </trkpt>
      <trkpt lat="45.05739" lon="2.76102">
        <ele>1815</ele>
        <time>2022-10-03T13:19:12+02:00</time>
      </trkpt>
      <trkpt lat="45.0576" lon="2.76115">
        <ele>1816</ele>
        <time>2022-10-03T13:19:36+02:00</time>
      </trkpt>
      <trkpt lat="45.05778" lon="2.76136">
        <ele>1821</ele>
        <time>2022-10-03T13:22:13+02:00</time>
      </trkpt>
      <trkpt lat="45.05794" lon="2.76158">
        <ele>1827</ele>
        <time>2022-10-03T13:22:44+02:00</time>
      </trkpt>
      <trkpt lat="45.05815" lon="2.7617">
        <ele>1833</ele>
        <time>2022-10-03T13:23:24+02:00</time>
      </trkpt>
      <trkpt lat="45.05838" lon="2.76174">
        <ele>1837</ele>
        <time>2022-10-03T13:24:11+02:00</time>
      </trkpt>
      <trkpt lat="45.0586" lon="2.76181">
        <ele>1841</ele>
        <time>2022-10-03T13:24:55+02:00</time>
      </trkpt>
      <trkpt lat="45.05883" lon="2.76177">
        <ele>1842</ele>
        <time>2022-10-03T13:25:41+02:00</time>
      </trkpt>
      <trkpt lat="45.05888" lon="2.76146">
        <ele>1845</ele>
        <time>2022-10-03T13:26:46+02:00</time>
      </trkpt>
      <trkpt lat="45.05885" lon="2.76152">
        <ele>1850</ele>
        <time>2022-10-03T13:34:33+02:00</time>
      </trkpt>
      <trkpt lat="45.05866" lon="2.76171">
        <ele>1850</ele>
        <time>2022-10-03T13:38:19+02:00</time>
      </trkpt>
      <trkpt lat="45.05843" lon="2.76171">
        <ele>1842</ele>
        <time>2022-10-03T13:39:02+02:00</time>
      </trkpt>
      <trkpt lat="45.0582" lon="2.76172">
        <ele>1832</ele>
        <time>2022-10-03T13:39:59+02:00</time>
      </trkpt>
      <trkpt lat="45.05798" lon="2.76166">
        <ele>1826</ele>
        <time>2022-10-03T13:41:15+02:00</time>
      </trkpt>
      <trkpt lat="45.05786" lon="2.76137">
        <ele>1821</ele>
        <time>2022-10-03T13:41:41+02:00</time>
      </trkpt>
      <trkpt lat="45.058" lon="2.7611">
        <ele>1812</ele>
        <time>2022-10-03T13:44:55+02:00</time>
      </trkpt>
      <trkpt lat="45.05821" lon="2.76097">
        <ele>1805</ele>
        <time>2022-10-03T13:45:14+02:00</time>
      </trkpt>
      <trkpt lat="45.05843" lon="2.76094">
        <ele>1797</ele>
        <time>2022-10-03T13:45:36+02:00</time>
      </trkpt>
      <trkpt lat="45.0582" lon="2.7609">
        <ele>1811</ele>
        <time>2022-10-03T14:47:12+02:00</time>
      </trkpt>
      <trkpt lat="45.05799" lon="2.76102">
        <ele>1812</ele>
        <time>2022-10-03T14:47:44+02:00</time>
      </trkpt>
      <trkpt lat="45.05778" lon="2.76116">
        <ele>1812</ele>
        <time>2022-10-03T14:48:19+02:00</time>
      </trkpt>
      <trkpt lat="45.05755" lon="2.76115">
        <ele>1810</ele>
        <time>2022-10-03T14:49:15+02:00</time>
      </trkpt>
      <trkpt lat="45.05735" lon="2.76101">
        <ele>1805</ele>
        <time>2022-10-03T14:49:40+02:00</time>
      </trkpt>
      <trkpt lat="45.05712" lon="2.76091">
        <ele>1807</ele>
        <time>2022-10-03T14:50:11+02:00</time>
      </trkpt>
      <trkpt lat="45.05691" lon="2.7608">
        <ele>1807</ele>
        <time>2022-10-03T14:50:37+02:00</time>
      </trkpt>
      <trkpt lat="45.05675" lon="2.76057">
        <ele>1809</ele>
        <time>2022-10-03T14:51:20+02:00</time>
      </trkpt>
      <trkpt lat="45.05664" lon="2.76029">
        <ele>1812</ele>
        <time>2022-10-03T14:51:43+02:00</time>
      </trkpt>
      <trkpt lat="45.05648" lon="2.76006">
        <ele>1813</ele>
        <time>2022-10-03T14:52:10+02:00</time>
      </trkpt>
      <trkpt lat="45.05635" lon="2.75979">
        <ele>1812</ele>
        <time>2022-10-03T14:52:55+02:00</time>
      </trkpt>
      <trkpt lat="45.05631" lon="2.75947">
        <ele>1811</ele>
        <time>2022-10-03T14:53:25+02:00</time>
      </trkpt>
      <trkpt lat="45.0562" lon="2.75918">
        <ele>1808</ele>
        <time>2022-10-03T14:54:08+02:00</time>
      </trkpt>
      <trkpt lat="45.05608" lon="2.75891">
        <ele>1803</ele>
        <time>2022-10-03T14:54:35+02:00</time>
      </trkpt>
      <trkpt lat="45.05594" lon="2.75865">
        <ele>1800</ele>
        <time>2022-10-03T14:55:11+02:00</time>
      </trkpt>
      <trkpt lat="45.05579" lon="2.7584">
        <ele>1798</ele>
        <time>2022-10-03T14:55:36+02:00</time>
      </trkpt>
      <trkpt lat="45.05565" lon="2.75815">
        <ele>1797</ele>
        <time>2022-10-03T14:56:05+02:00</time>
      </trkpt>
      <trkpt lat="45.05552" lon="2.75787">
        <ele>1792</ele>
        <time>2022-10-03T14:56:39+02:00</time>
      </trkpt>
      <trkpt lat="45.05539" lon="2.75761">
        <ele>1788</ele>
        <time>2022-10-03T14:57:07+02:00</time>
      </trkpt>
      <trkpt lat="45.05524" lon="2.75736">
        <ele>1784</ele>
        <time>2022-10-03T14:57:37+02:00</time>
      </trkpt>
      <trkpt lat="45.0551" lon="2.75711">
        <ele>1780</ele>
        <time>2022-10-03T14:58:22+02:00</time>
      </trkpt>
      <trkpt lat="45.05496" lon="2.75684">
        <ele>1778</ele>
        <time>2022-10-03T14:58:51+02:00</time>
      </trkpt>
      <trkpt lat="45.05486" lon="2.75655">
        <ele>1776</ele>
        <time>2022-10-03T14:59:15+02:00</time>
      </trkpt>
      <trkpt lat="45.05477" lon="2.75625">
        <ele>1775</ele>
        <time>2022-10-03T14:59:38+02:00</time>
      </trkpt>
      <trkpt lat="45.05465" lon="2.75563">
        <ele>1777</ele>
        <time>2022-10-03T15:00:42+02:00</time>
      </trkpt>
      <trkpt lat="45.05459" lon="2.75531">
        <ele>1781</ele>
        <time>2022-10-03T15:01:07+02:00</time>
      </trkpt>
      <trkpt lat="45.05456" lon="2.75499">
        <ele>1785</ele>
        <time>2022-10-03T15:01:32+02:00</time>
      </trkpt>
      <trkpt lat="45.05458" lon="2.75467">
        <ele>1787</ele>
        <time>2022-10-03T15:01:56+02:00</time>
      </trkpt>
      <trkpt lat="45.05432" lon="2.75414">
        <ele>1771</ele>
        <time>2022-10-03T15:03:26+02:00</time>
      </trkpt>
      <trkpt lat="45.0541" lon="2.75407">
        <ele>1763</ele>
        <time>2022-10-03T15:04:04+02:00</time>
      </trkpt>
      <trkpt lat="45.05388" lon="2.7541">
        <ele>1754</ele>
        <time>2022-10-03T15:04:43+02:00</time>
      </trkpt>
      <trkpt lat="45.05365" lon="2.75411">
        <ele>1753</ele>
        <time>2022-10-03T15:05:32+02:00</time>
      </trkpt>
      <trkpt lat="45.05342" lon="2.75412">
        <ele>1749</ele>
        <time>2022-10-03T15:06:10+02:00</time>
      </trkpt>
      <trkpt lat="45.0532" lon="2.75412">
        <ele>1746</ele>
        <time>2022-10-03T15:06:40+02:00</time>
      </trkpt>
      <trkpt lat="45.05297" lon="2.75412">
        <ele>1736</ele>
        <time>2022-10-03T15:07:18+02:00</time>
      </trkpt>
      <trkpt lat="45.05274" lon="2.75413">
        <ele>1729</ele>
        <time>2022-10-03T15:07:55+02:00</time>
      </trkpt>
      <trkpt lat="45.05252" lon="2.75423">
        <ele>1726</ele>
        <time>2022-10-03T15:08:38+02:00</time>
      </trkpt>
      <trkpt lat="45.0523" lon="2.75413">
        <ele>1730</ele>
        <time>2022-10-03T15:09:49+02:00</time>
      </trkpt>
      <trkpt lat="45.05208" lon="2.75405">
        <ele>1735</ele>
        <time>2022-10-03T15:10:22+02:00</time>
      </trkpt>
      <trkpt lat="45.05191" lon="2.75385">
        <ele>1738</ele>
        <time>2022-10-03T15:10:54+02:00</time>
      </trkpt>
      <trkpt lat="45.05171" lon="2.75367">
        <ele>1737</ele>
        <time>2022-10-03T15:11:28+02:00</time>
      </trkpt>
      <trkpt lat="45.05154" lon="2.75346">
        <ele>1736</ele>
        <time>2022-10-03T15:11:59+02:00</time>
      </trkpt>
      <trkpt lat="45.05132" lon="2.75336">
        <ele>1733</ele>
        <time>2022-10-03T15:12:25+02:00</time>
      </trkpt>
      <trkpt lat="45.0511" lon="2.75323">
        <ele>1733</ele>
        <time>2022-10-03T15:12:48+02:00</time>
      </trkpt>
      <trkpt lat="45.0509" lon="2.7531">
        <ele>1731</ele>
        <time>2022-10-03T15:13:19+02:00</time>
      </trkpt>
      <trkpt lat="45.05067" lon="2.75303">
        <ele>1729</ele>
        <time>2022-10-03T15:13:43+02:00</time>
      </trkpt>
      <trkpt lat="45.05044" lon="2.75304">
        <ele>1723</ele>
        <time>2022-10-03T15:14:12+02:00</time>
      </trkpt>
      <trkpt lat="45.05021" lon="2.75306">
        <ele>1718</ele>
        <time>2022-10-03T15:14:37+02:00</time>
      </trkpt>
      <trkpt lat="45.04998" lon="2.75304">
        <ele>1715</ele>
        <time>2022-10-03T15:15:04+02:00</time>
      </trkpt>
      <trkpt lat="45.04977" lon="2.7529">
        <ele>1709</ele>
        <time>2022-10-03T15:15:30+02:00</time>
      </trkpt>
      <trkpt lat="45.04955" lon="2.75279">
        <ele>1702</ele>
        <time>2022-10-03T15:15:56+02:00</time>
      </trkpt>
      <trkpt lat="45.04935" lon="2.75266">
        <ele>1697</ele>
        <time>2022-10-03T15:16:18+02:00</time>
      </trkpt>
      <trkpt lat="45.04915" lon="2.7525">
        <ele>1691</ele>
        <time>2022-10-03T15:16:45+02:00</time>
      </trkpt>
      <trkpt lat="45.04894" lon="2.75238">
        <ele>1687</ele>
        <time>2022-10-03T15:17:12+02:00</time>
      </trkpt>
      <trkpt lat="45.04874" lon="2.75221">
        <ele>1684</ele>
        <time>2022-10-03T15:17:40+02:00</time>
      </trkpt>
      <trkpt lat="45.04856" lon="2.75201">
        <ele>1680</ele>
        <time>2022-10-03T15:18:08+02:00</time>
      </trkpt>
      <trkpt lat="45.04835" lon="2.7519">
        <ele>1676</ele>
        <time>2022-10-03T15:18:34+02:00</time>
      </trkpt>
      <trkpt lat="45.04815" lon="2.75175">
        <ele>1673</ele>
        <time>2022-10-03T15:19:00+02:00</time>
      </trkpt>
      <trkpt lat="45.04794" lon="2.7516">
        <ele>1668</ele>
        <time>2022-10-03T15:19:24+02:00</time>
      </trkpt>
      <trkpt lat="45.04777" lon="2.75137">
        <ele>1664</ele>
        <time>2022-10-03T15:19:47+02:00</time>
      </trkpt>
      <trkpt lat="45.0476" lon="2.75115">
        <ele>1661</ele>
        <time>2022-10-03T15:20:09+02:00</time>
      </trkpt>
      <trkpt lat="45.04745" lon="2.75091">
        <ele>1659</ele>
        <time>2022-10-03T15:20:33+02:00</time>
      </trkpt>
      <trkpt lat="45.04736" lon="2.75062">
        <ele>1658</ele>
        <time>2022-10-03T15:21:03+02:00</time>
      </trkpt>
      <trkpt lat="45.04721" lon="2.75036">
        <ele>1659</ele>
        <time>2022-10-03T15:21:27+02:00</time>
      </trkpt>
      <trkpt lat="45.04702" lon="2.75018">
        <ele>1660</ele>
        <time>2022-10-03T15:21:50+02:00</time>
      </trkpt>
      <trkpt lat="45.04681" lon="2.75005">
        <ele>1670</ele>
        <time>2022-10-03T15:23:04+02:00</time>
      </trkpt>
      <trkpt lat="45.04661" lon="2.74991">
        <ele>1671</ele>
        <time>2022-10-03T15:23:35+02:00</time>
      </trkpt>
      <trkpt lat="45.0464" lon="2.74977">
        <ele>1672</ele>
        <time>2022-10-03T15:24:08+02:00</time>
      </trkpt>
      <trkpt lat="45.04618" lon="2.74967">
        <ele>1674</ele>
        <time>2022-10-03T15:24:38+02:00</time>
      </trkpt>
      <trkpt lat="45.04597" lon="2.74955">
        <ele>1674</ele>
        <time>2022-10-03T15:25:06+02:00</time>
      </trkpt>
      <trkpt lat="45.04575" lon="2.74947">
        <ele>1675</ele>
        <time>2022-10-03T15:25:33+02:00</time>
      </trkpt>
      <trkpt lat="45.04552" lon="2.74947">
        <ele>1675</ele>
        <time>2022-10-03T15:26:03+02:00</time>
      </trkpt>
      <trkpt lat="45.04529" lon="2.74943">
        <ele>1672</ele>
        <time>2022-10-03T15:27:08+02:00</time>
      </trkpt>
      <trkpt lat="45.04512" lon="2.74922">
        <ele>1674</ele>
        <time>2022-10-03T15:27:35+02:00</time>
      </trkpt>
      <trkpt lat="45.04489" lon="2.74915">
        <ele>1668</ele>
        <time>2022-10-03T15:28:07+02:00</time>
      </trkpt>
      <trkpt lat="45.04469" lon="2.74897">
        <ele>1666</ele>
        <time>2022-10-03T15:28:34+02:00</time>
      </trkpt>
      <trkpt lat="45.04452" lon="2.74876">
        <ele>1672</ele>
        <time>2022-10-03T15:29:11+02:00</time>
      </trkpt>
      <trkpt lat="45.04435" lon="2.74855">
        <ele>1671</ele>
        <time>2022-10-03T15:29:49+02:00</time>
      </trkpt>
      <trkpt lat="45.04413" lon="2.74844">
        <ele>1672</ele>
        <time>2022-10-03T15:30:37+02:00</time>
      </trkpt>
      <trkpt lat="45.04392" lon="2.74833">
        <ele>1676</ele>
        <time>2022-10-03T15:31:02+02:00</time>
      </trkpt>
      <trkpt lat="45.04374" lon="2.74813">
        <ele>1680</ele>
        <time>2022-10-03T15:31:54+02:00</time>
      </trkpt>
      <trkpt lat="45.04357" lon="2.74791">
        <ele>1680</ele>
        <time>2022-10-03T15:32:38+02:00</time>
      </trkpt>
      <trkpt lat="45.04341" lon="2.74768">
        <ele>1677</ele>
        <time>2022-10-03T15:34:49+02:00</time>
      </trkpt>
      <trkpt lat="45.04322" lon="2.7475">
        <ele>1677</ele>
        <time>2022-10-03T15:35:17+02:00</time>
      </trkpt>
      <trkpt lat="45.04304" lon="2.7473">
        <ele>1677</ele>
        <time>2022-10-03T15:35:47+02:00</time>
      </trkpt>
      <trkpt lat="45.04286" lon="2.74711">
        <ele>1676</ele>
        <time>2022-10-03T15:36:14+02:00</time>
      </trkpt>
      <trkpt lat="45.04268" lon="2.7469">
        <ele>1673</ele>
        <time>2022-10-03T15:36:47+02:00</time>
      </trkpt>
      <trkpt lat="45.04251" lon="2.74669">
        <ele>1677</ele>
        <time>2022-10-03T15:37:27+02:00</time>
      </trkpt>
      <trkpt lat="45.04232" lon="2.74651">
        <ele>1681</ele>
        <time>2022-10-03T15:38:00+02:00</time>
      </trkpt>
      <trkpt lat="45.04232" lon="2.74618">
        <ele>1683</ele>
        <time>2022-10-03T15:38:28+02:00</time>
      </trkpt>
      <trkpt lat="45.04221" lon="2.74589">
        <ele>1683</ele>
        <time>2022-10-03T15:39:00+02:00</time>
      </trkpt>
      <trkpt lat="45.0421" lon="2.74561">
        <ele>1684</ele>
        <time>2022-10-03T15:39:43+02:00</time>
      </trkpt>
      <trkpt lat="45.04191" lon="2.74543">
        <ele>1682</ele>
        <time>2022-10-03T15:40:17+02:00</time>
      </trkpt>
      <trkpt lat="45.04171" lon="2.7453">
        <ele>1677</ele>
        <time>2022-10-03T15:40:48+02:00</time>
      </trkpt>
      <trkpt lat="45.0415" lon="2.74517">
        <ele>1675</ele>
        <time>2022-10-03T15:41:17+02:00</time>
      </trkpt>
      <trkpt lat="45.04134" lon="2.74493">
        <ele>1673</ele>
        <time>2022-10-03T15:41:48+02:00</time>
      </trkpt>
      <trkpt lat="45.04118" lon="2.74469">
        <ele>1673</ele>
        <time>2022-10-03T15:42:14+02:00</time>
      </trkpt>
      <trkpt lat="45.04104" lon="2.74443">
        <ele>1667</ele>
        <time>2022-10-03T15:42:43+02:00</time>
      </trkpt>
      <trkpt lat="45.04089" lon="2.74418">
        <ele>1660</ele>
        <time>2022-10-03T15:43:35+02:00</time>
      </trkpt>
      <trkpt lat="45.04073" lon="2.74395">
        <ele>1657</ele>
        <time>2022-10-03T15:44:02+02:00</time>
      </trkpt>
      <trkpt lat="45.04059" lon="2.7437">
        <ele>1654</ele>
        <time>2022-10-03T15:44:28+02:00</time>
      </trkpt>
      <trkpt lat="45.04043" lon="2.74346">
        <ele>1653</ele>
        <time>2022-10-03T15:44:51+02:00</time>
      </trkpt>
      <trkpt lat="45.04025" lon="2.74326">
        <ele>1654</ele>
        <time>2022-10-03T15:45:15+02:00</time>
      </trkpt>
      <trkpt lat="45.04004" lon="2.74313">
        <ele>1654</ele>
        <time>2022-10-03T15:45:38+02:00</time>
      </trkpt>
      <trkpt lat="45.03983" lon="2.74298">
        <ele>1656</ele>
        <time>2022-10-03T15:46:01+02:00</time>
      </trkpt>
      <trkpt lat="45.03964" lon="2.74281">
        <ele>1660</ele>
        <time>2022-10-03T15:46:53+02:00</time>
      </trkpt>
      <trkpt lat="45.03945" lon="2.74262">
        <ele>1661</ele>
        <time>2022-10-03T15:47:25+02:00</time>
      </trkpt>
      <trkpt lat="45.03927" lon="2.74244">
        <ele>1658</ele>
        <time>2022-10-03T15:48:09+02:00</time>
      </trkpt>
      <trkpt lat="45.03904" lon="2.74236">
        <ele>1656</ele>
        <time>2022-10-03T15:48:41+02:00</time>
      </trkpt>
      <trkpt lat="45.03882" lon="2.74228">
        <ele>1653</ele>
        <time>2022-10-03T15:49:07+02:00</time>
      </trkpt>
      <trkpt lat="45.03862" lon="2.74213">
        <ele>1652</ele>
        <time>2022-10-03T15:49:36+02:00</time>
      </trkpt>
      <trkpt lat="45.0384" lon="2.74203">
        <ele>1650</ele>
        <time>2022-10-03T15:50:02+02:00</time>
      </trkpt>
      <trkpt lat="45.03819" lon="2.74192">
        <ele>1646</ele>
        <time>2022-10-03T15:50:29+02:00</time>
      </trkpt>
      <trkpt lat="45.038" lon="2.74174">
        <ele>1643</ele>
        <time>2022-10-03T15:50:56+02:00</time>
      </trkpt>
      <trkpt lat="45.03779" lon="2.74159">
        <ele>1641</ele>
        <time>2022-10-03T15:51:25+02:00</time>
      </trkpt>
      <trkpt lat="45.03761" lon="2.7414">
        <ele>1636</ele>
        <time>2022-10-03T15:51:54+02:00</time>
      </trkpt>
      <trkpt lat="45.03742" lon="2.74122">
        <ele>1632</ele>
        <time>2022-10-03T15:52:19+02:00</time>
      </trkpt>
      <trkpt lat="45.03721" lon="2.74111">
        <ele>1630</ele>
        <time>2022-10-03T15:52:45+02:00</time>
      </trkpt>
      <trkpt lat="45.037" lon="2.74095">
        <ele>1627</ele>
        <time>2022-10-03T15:53:10+02:00</time>
      </trkpt>
      <trkpt lat="45.03682" lon="2.74076">
        <ele>1629</ele>
        <time>2022-10-03T15:53:34+02:00</time>
      </trkpt>
      <trkpt lat="45.0366" lon="2.74063">
        <ele>1626</ele>
        <time>2022-10-03T15:54:07+02:00</time>
      </trkpt>
      <trkpt lat="45.03638" lon="2.74054">
        <ele>1621</ele>
        <time>2022-10-03T15:54:38+02:00</time>
      </trkpt>
      <trkpt lat="45.03616" lon="2.74051">
        <ele>1617</ele>
        <time>2022-10-03T15:55:03+02:00</time>
      </trkpt>
      <trkpt lat="45.03594" lon="2.74039">
        <ele>1614</ele>
        <time>2022-10-03T15:55:28+02:00</time>
      </trkpt>
      <trkpt lat="45.03576" lon="2.74017">
        <ele>1612</ele>
        <time>2022-10-03T15:55:51+02:00</time>
      </trkpt>
      <trkpt lat="45.03555" lon="2.74005">
        <ele>1615</ele>
        <time>2022-10-03T15:56:15+02:00</time>
      </trkpt>
      <trkpt lat="45.03533" lon="2.73995">
        <ele>1617</ele>
        <time>2022-10-03T15:56:44+02:00</time>
      </trkpt>
      <trkpt lat="45.0351" lon="2.73996">
        <ele>1621</ele>
        <time>2022-10-03T15:57:18+02:00</time>
      </trkpt>
      <trkpt lat="45.03488" lon="2.73992">
        <ele>1623</ele>
        <time>2022-10-03T15:57:52+02:00</time>
      </trkpt>
      <trkpt lat="45.03468" lon="2.73978">
        <ele>1627</ele>
        <time>2022-10-03T15:58:53+02:00</time>
      </trkpt>
      <trkpt lat="45.03449" lon="2.73958">
        <ele>1630</ele>
        <time>2022-10-03T15:59:22+02:00</time>
      </trkpt>
      <trkpt lat="45.03429" lon="2.73943">
        <ele>1630</ele>
        <time>2022-10-03T15:59:48+02:00</time>
      </trkpt>
      <trkpt lat="45.03408" lon="2.73929">
        <ele>1629</ele>
        <time>2022-10-03T16:00:13+02:00</time>
      </trkpt>
      <trkpt lat="45.03387" lon="2.73915">
        <ele>1629</ele>
        <time>2022-10-03T16:00:38+02:00</time>
      </trkpt>
      <trkpt lat="45.03365" lon="2.73905">
        <ele>1624</ele>
        <time>2022-10-03T16:01:02+02:00</time>
      </trkpt>
      <trkpt lat="45.03346" lon="2.73889">
        <ele>1624</ele>
        <time>2022-10-03T16:01:26+02:00</time>
      </trkpt>
      <trkpt lat="45.03325" lon="2.73875">
        <ele>1623</ele>
        <time>2022-10-03T16:01:48+02:00</time>
      </trkpt>
      <trkpt lat="45.03305" lon="2.7386">
        <ele>1621</ele>
        <time>2022-10-03T16:02:13+02:00</time>
      </trkpt>
      <trkpt lat="45.03283" lon="2.73847">
        <ele>1622</ele>
        <time>2022-10-03T16:02:37+02:00</time>
      </trkpt>
      <trkpt lat="45.03263" lon="2.73833">
        <ele>1619</ele>
        <time>2022-10-03T16:03:00+02:00</time>
      </trkpt>
      <trkpt lat="45.03242" lon="2.7382">
        <ele>1619</ele>
        <time>2022-10-03T16:03:25+02:00</time>
      </trkpt>
      <trkpt lat="45.03221" lon="2.73807">
        <ele>1620</ele>
        <time>2022-10-03T16:03:50+02:00</time>
      </trkpt>
      <trkpt lat="45.032" lon="2.73793">
        <ele>1620</ele>
        <time>2022-10-03T16:04:15+02:00</time>
      </trkpt>
      <trkpt lat="45.0318" lon="2.73779">
        <ele>1618</ele>
        <time>2022-10-03T16:04:40+02:00</time>
      </trkpt>
      <trkpt lat="45.0316" lon="2.73762">
        <ele>1619</ele>
        <time>2022-10-03T16:05:06+02:00</time>
      </trkpt>
      <trkpt lat="45.0314" lon="2.73748">
        <ele>1617</ele>
        <time>2022-10-03T16:05:36+02:00</time>
      </trkpt>
      <trkpt lat="45.0312" lon="2.73732">
        <ele>1614</ele>
        <time>2022-10-03T16:06:13+02:00</time>
      </trkpt>
      <trkpt lat="45.03101" lon="2.73712">
        <ele>1612</ele>
        <time>2022-10-03T16:06:37+02:00</time>
      </trkpt>
      <trkpt lat="45.03081" lon="2.73697">
        <ele>1611</ele>
        <time>2022-10-03T16:07:00+02:00</time>
      </trkpt>
      <trkpt lat="45.03061" lon="2.7368">
        <ele>1610</ele>
        <time>2022-10-03T16:07:23+02:00</time>
      </trkpt>
      <trkpt lat="45.03041" lon="2.73666">
        <ele>1605</ele>
        <time>2022-10-03T16:07:48+02:00</time>
      </trkpt>
      <trkpt lat="45.0302" lon="2.73651">
        <ele>1602</ele>
        <time>2022-10-03T16:08:15+02:00</time>
      </trkpt>
      <trkpt lat="45.03001" lon="2.73632">
        <ele>1600</ele>
        <time>2022-10-03T16:08:39+02:00</time>
      </trkpt>
      <trkpt lat="45.02983" lon="2.73614">
        <ele>1594</ele>
        <time>2022-10-03T16:09:03+02:00</time>
      </trkpt>
      <trkpt lat="45.02962" lon="2.73599">
        <ele>1593</ele>
        <time>2022-10-03T16:09:29+02:00</time>
      </trkpt>
      <trkpt lat="45.02939" lon="2.73591">
        <ele>1593</ele>
        <time>2022-10-03T16:09:51+02:00</time>
      </trkpt>
      <trkpt lat="45.02918" lon="2.73577">
        <ele>1591</ele>
        <time>2022-10-03T16:10:16+02:00</time>
      </trkpt>
      <trkpt lat="45.02897" lon="2.73564">
        <ele>1593</ele>
        <time>2022-10-03T16:10:39+02:00</time>
      </trkpt>
      <trkpt lat="45.02876" lon="2.73547">
        <ele>1587</ele>
        <time>2022-10-03T16:11:05+02:00</time>
      </trkpt>
      <trkpt lat="45.02857" lon="2.73529">
        <ele>1587</ele>
        <time>2022-10-03T16:11:29+02:00</time>
      </trkpt>
      <trkpt lat="45.02842" lon="2.73505">
        <ele>1583</ele>
        <time>2022-10-03T16:11:52+02:00</time>
      </trkpt>
      <trkpt lat="45.02825" lon="2.73482">
        <ele>1583</ele>
        <time>2022-10-03T16:12:16+02:00</time>
      </trkpt>
      <trkpt lat="45.02808" lon="2.73461">
        <ele>1585</ele>
        <time>2022-10-03T16:12:40+02:00</time>
      </trkpt>
      <trkpt lat="45.02788" lon="2.73445">
        <ele>1586</ele>
        <time>2022-10-03T16:13:04+02:00</time>
      </trkpt>
      <trkpt lat="45.02768" lon="2.73429">
        <ele>1585</ele>
        <time>2022-10-03T16:13:36+02:00</time>
      </trkpt>
      <trkpt lat="45.02749" lon="2.7341">
        <ele>1584</ele>
        <time>2022-10-03T16:14:01+02:00</time>
      </trkpt>
      <trkpt lat="45.02733" lon="2.73386">
        <ele>1588</ele>
        <time>2022-10-03T16:14:28+02:00</time>
      </trkpt>
      <trkpt lat="45.02715" lon="2.73366">
        <ele>1586</ele>
        <time>2022-10-03T16:14:51+02:00</time>
      </trkpt>
      <trkpt lat="45.02696" lon="2.73348">
        <ele>1586</ele>
        <time>2022-10-03T16:15:15+02:00</time>
      </trkpt>
      <trkpt lat="45.02679" lon="2.73325">
        <ele>1587</ele>
        <time>2022-10-03T16:15:40+02:00</time>
      </trkpt>
      <trkpt lat="45.02663" lon="2.73303">
        <ele>1586</ele>
        <time>2022-10-03T16:16:02+02:00</time>
      </trkpt>
      <trkpt lat="45.02645" lon="2.73282">
        <ele>1585</ele>
        <time>2022-10-03T16:16:24+02:00</time>
      </trkpt>
      <trkpt lat="45.0263" lon="2.73258">
        <ele>1584</ele>
        <time>2022-10-03T16:16:47+02:00</time>
      </trkpt>
      <trkpt lat="45.02614" lon="2.73234">
        <ele>1586</ele>
        <time>2022-10-03T16:17:11+02:00</time>
      </trkpt>
      <trkpt lat="45.02596" lon="2.73215">
        <ele>1588</ele>
        <time>2022-10-03T16:17:45+02:00</time>
      </trkpt>
      <trkpt lat="45.02577" lon="2.73198">
        <ele>1591</ele>
        <time>2022-10-03T16:18:12+02:00</time>
      </trkpt>
      <trkpt lat="45.02554" lon="2.73195">
        <ele>1589</ele>
        <time>2022-10-03T16:18:38+02:00</time>
      </trkpt>
      <trkpt lat="45.02532" lon="2.73199">
        <ele>1582</ele>
        <time>2022-10-03T16:19:04+02:00</time>
      </trkpt>
      <trkpt lat="45.02509" lon="2.73199">
        <ele>1579</ele>
        <time>2022-10-03T16:19:29+02:00</time>
      </trkpt>
      <trkpt lat="45.02487" lon="2.73206">
        <ele>1575</ele>
        <time>2022-10-03T16:19:55+02:00</time>
      </trkpt>
      <trkpt lat="45.02464" lon="2.73207">
        <ele>1574</ele>
        <time>2022-10-03T16:20:32+02:00</time>
      </trkpt>
      <trkpt lat="45.02448" lon="2.73231">
        <ele>1575</ele>
        <time>2022-10-03T16:21:13+02:00</time>
      </trkpt>
      <trkpt lat="45.02425" lon="2.73224">
        <ele>1576</ele>
        <time>2022-10-03T16:21:51+02:00</time>
      </trkpt>
      <trkpt lat="45.02404" lon="2.73212">
        <ele>1571</ele>
        <time>2022-10-03T16:22:19+02:00</time>
      </trkpt>
      <trkpt lat="45.02382" lon="2.732">
        <ele>1566</ele>
        <time>2022-10-03T16:22:46+02:00</time>
      </trkpt>
      <trkpt lat="45.0236" lon="2.73193">
        <ele>1562</ele>
        <time>2022-10-03T16:23:12+02:00</time>
      </trkpt>
      <trkpt lat="45.02337" lon="2.73189">
        <ele>1558</ele>
        <time>2022-10-03T16:23:35+02:00</time>
      </trkpt>
      <trkpt lat="45.02316" lon="2.73176">
        <ele>1556</ele>
        <time>2022-10-03T16:24:01+02:00</time>
      </trkpt>
      <trkpt lat="45.02295" lon="2.7316">
        <ele>1554</ele>
        <time>2022-10-03T16:24:27+02:00</time>
      </trkpt>
      <trkpt lat="45.02273" lon="2.73152">
        <ele>1552</ele>
        <time>2022-10-03T16:24:50+02:00</time>
      </trkpt>
      <trkpt lat="45.02252" lon="2.73137">
        <ele>1550</ele>
        <time>2022-10-03T16:25:14+02:00</time>
      </trkpt>
      <trkpt lat="45.02232" lon="2.73124">
        <ele>1547</ele>
        <time>2022-10-03T16:25:36+02:00</time>
      </trkpt>
      <trkpt lat="45.02212" lon="2.73108">
        <ele>1545</ele>
        <time>2022-10-03T16:25:58+02:00</time>
      </trkpt>
      <trkpt lat="45.02194" lon="2.73088">
        <ele>1544</ele>
        <time>2022-10-03T16:26:21+02:00</time>
      </trkpt>
      <trkpt lat="45.02177" lon="2.73067">
        <ele>1542</ele>
        <time>2022-10-03T16:26:42+02:00</time>
      </trkpt>
      <trkpt lat="45.0216" lon="2.73046">
        <ele>1541</ele>
        <time>2022-10-03T16:27:04+02:00</time>
      </trkpt>
      <trkpt lat="45.02144" lon="2.73022">
        <ele>1538</ele>
        <time>2022-10-03T16:27:27+02:00</time>
      </trkpt>
      <trkpt lat="45.02126" lon="2.73002">
        <ele>1536</ele>
        <time>2022-10-03T16:27:50+02:00</time>
      </trkpt>
      <trkpt lat="45.02109" lon="2.72981">
        <ele>1534</ele>
        <time>2022-10-03T16:28:13+02:00</time>
      </trkpt>
      <trkpt lat="45.02092" lon="2.72959">
        <ele>1532</ele>
        <time>2022-10-03T16:28:37+02:00</time>
      </trkpt>
      <trkpt lat="45.02073" lon="2.7294">
        <ele>1529</ele>
        <time>2022-10-03T16:29:01+02:00</time>
      </trkpt>
      <trkpt lat="45.02054" lon="2.72923">
        <ele>1528</ele>
        <time>2022-10-03T16:29:23+02:00</time>
      </trkpt>
      <trkpt lat="45.02034" lon="2.72907">
        <ele>1527</ele>
        <time>2022-10-03T16:29:46+02:00</time>
      </trkpt>
      <trkpt lat="45.02015" lon="2.72888">
        <ele>1525</ele>
        <time>2022-10-03T16:30:10+02:00</time>
      </trkpt>
      <trkpt lat="45.01998" lon="2.72867">
        <ele>1524</ele>
        <time>2022-10-03T16:30:33+02:00</time>
      </trkpt>
      <trkpt lat="45.01981" lon="2.72845">
        <ele>1521</ele>
        <time>2022-10-03T16:30:55+02:00</time>
      </trkpt>
      <trkpt lat="45.01963" lon="2.72824">
        <ele>1519</ele>
        <time>2022-10-03T16:31:17+02:00</time>
      </trkpt>
      <trkpt lat="45.01946" lon="2.72802">
        <ele>1518</ele>
        <time>2022-10-03T16:31:39+02:00</time>
      </trkpt>
      <trkpt lat="45.01915" lon="2.72754">
        <ele>1515</ele>
        <time>2022-10-03T16:32:24+02:00</time>
      </trkpt>
      <trkpt lat="45.019" lon="2.72729">
        <ele>1514</ele>
        <time>2022-10-03T16:32:46+02:00</time>
      </trkpt>
      <trkpt lat="45.01886" lon="2.72703">
        <ele>1512</ele>
        <time>2022-10-03T16:33:09+02:00</time>
      </trkpt>
      <trkpt lat="45.01872" lon="2.72677">
        <ele>1515</ele>
        <time>2022-10-03T16:33:34+02:00</time>
      </trkpt>
      <trkpt lat="45.01861" lon="2.72649">
        <ele>1514</ele>
        <time>2022-10-03T16:33:57+02:00</time>
      </trkpt>
      <trkpt lat="45.01849" lon="2.72621">
        <ele>1514</ele>
        <time>2022-10-03T16:34:20+02:00</time>
      </trkpt>
      <trkpt lat="45.01838" lon="2.72593">
        <ele>1515</ele>
        <time>2022-10-03T16:34:45+02:00</time>
      </trkpt>
      <trkpt lat="45.01829" lon="2.72563">
        <ele>1517</ele>
        <time>2022-10-03T16:35:11+02:00</time>
      </trkpt>
      <trkpt lat="45.0182" lon="2.72533">
        <ele>1520</ele>
        <time>2022-10-03T16:35:37+02:00</time>
      </trkpt>
      <trkpt lat="45.01811" lon="2.72504">
        <ele>1524</ele>
        <time>2022-10-03T16:36:02+02:00</time>
      </trkpt>
      <trkpt lat="45.01802" lon="2.72473">
        <ele>1525</ele>
        <time>2022-10-03T16:36:27+02:00</time>
      </trkpt>
      <trkpt lat="45.01791" lon="2.72445">
        <ele>1526</ele>
        <time>2022-10-03T16:36:51+02:00</time>
      </trkpt>
      <trkpt lat="45.01777" lon="2.7242">
        <ele>1525</ele>
        <time>2022-10-03T16:37:15+02:00</time>
      </trkpt>
      <trkpt lat="45.01762" lon="2.72395">
        <ele>1523</ele>
        <time>2022-10-03T16:37:44+02:00</time>
      </trkpt>
      <trkpt lat="45.01743" lon="2.72378">
        <ele>1525</ele>
        <time>2022-10-03T16:41:11+02:00</time>
      </trkpt>
      <trkpt lat="45.01725" lon="2.72359">
        <ele>1522</ele>
        <time>2022-10-03T16:41:37+02:00</time>
      </trkpt>
      <trkpt lat="45.01709" lon="2.72335">
        <ele>1520</ele>
        <time>2022-10-03T16:42:03+02:00</time>
      </trkpt>
      <trkpt lat="45.01697" lon="2.72308">
        <ele>1517</ele>
        <time>2022-10-03T16:42:30+02:00</time>
      </trkpt>
      <trkpt lat="45.01678" lon="2.72289">
        <ele>1514</ele>
        <time>2022-10-03T16:42:57+02:00</time>
      </trkpt>
      <trkpt lat="45.01657" lon="2.72274">
        <ele>1511</ele>
        <time>2022-10-03T16:43:21+02:00</time>
      </trkpt>
      <trkpt lat="45.01638" lon="2.72256">
        <ele>1509</ele>
        <time>2022-10-03T16:43:45+02:00</time>
      </trkpt>
      <trkpt lat="45.01619" lon="2.72239">
        <ele>1508</ele>
        <time>2022-10-03T16:44:07+02:00</time>
      </trkpt>
      <trkpt lat="45.01599" lon="2.72223">
        <ele>1507</ele>
        <time>2022-10-03T16:44:30+02:00</time>
      </trkpt>
      <trkpt lat="45.01581" lon="2.72203">
        <ele>1502</ele>
        <time>2022-10-03T16:44:54+02:00</time>
      </trkpt>
      <trkpt lat="45.01564" lon="2.72181">
        <ele>1499</ele>
        <time>2022-10-03T16:45:19+02:00</time>
      </trkpt>
      <trkpt lat="45.01545" lon="2.72163">
        <ele>1497</ele>
        <time>2022-10-03T16:45:46+02:00</time>
      </trkpt>
      <trkpt lat="45.01526" lon="2.72146">
        <ele>1495</ele>
        <time>2022-10-03T16:46:12+02:00</time>
      </trkpt>
      <trkpt lat="45.0151" lon="2.72123">
        <ele>1488</ele>
        <time>2022-10-03T16:46:39+02:00</time>
      </trkpt>
      <trkpt lat="45.01499" lon="2.72095">
        <ele>1483</ele>
        <time>2022-10-03T16:47:17+02:00</time>
      </trkpt>
      <trkpt lat="45.0149" lon="2.72065">
        <ele>1479</ele>
        <time>2022-10-03T16:48:05+02:00</time>
      </trkpt>
      <trkpt lat="45.01461" lon="2.72016">
        <ele>1472</ele>
        <time>2022-10-03T16:48:56+02:00</time>
      </trkpt>
      <trkpt lat="45.01444" lon="2.71993">
        <ele>1467</ele>
        <time>2022-10-03T16:49:26+02:00</time>
      </trkpt>
      <trkpt lat="45.0143" lon="2.71968">
        <ele>1465</ele>
        <time>2022-10-03T16:49:52+02:00</time>
      </trkpt>
      <trkpt lat="45.01417" lon="2.71941">
        <ele>1462</ele>
        <time>2022-10-03T16:50:23+02:00</time>
      </trkpt>
      <trkpt lat="45.01397" lon="2.71924">
        <ele>1458</ele>
        <time>2022-10-03T16:51:10+02:00</time>
      </trkpt>
      <trkpt lat="45.01382" lon="2.71898">
        <ele>1456</ele>
        <time>2022-10-03T16:51:37+02:00</time>
      </trkpt>
      <trkpt lat="45.01367" lon="2.71873">
        <ele>1455</ele>
        <time>2022-10-03T16:52:04+02:00</time>
      </trkpt>
      <trkpt lat="45.01354" lon="2.71846">
        <ele>1450</ele>
        <time>2022-10-03T16:52:30+02:00</time>
      </trkpt>
      <trkpt lat="45.01341" lon="2.71819">
        <ele>1449</ele>
        <time>2022-10-03T16:53:01+02:00</time>
      </trkpt>
      <trkpt lat="45.01327" lon="2.71795">
        <ele>1447</ele>
        <time>2022-10-03T16:53:28+02:00</time>
      </trkpt>
      <trkpt lat="45.01311" lon="2.71772">
        <ele>1446</ele>
        <time>2022-10-03T16:53:52+02:00</time>
      </trkpt>
      <trkpt lat="45.01293" lon="2.7175">
        <ele>1444</ele>
        <time>2022-10-03T16:54:25+02:00</time>
      </trkpt>
      <trkpt lat="45.01276" lon="2.71729">
        <ele>1439</ele>
        <time>2022-10-03T16:54:53+02:00</time>
      </trkpt>
      <trkpt lat="45.01257" lon="2.71713">
        <ele>1437</ele>
        <time>2022-10-03T16:55:17+02:00</time>
      </trkpt>
      <trkpt lat="45.0124" lon="2.7169">
        <ele>1434</ele>
        <time>2022-10-03T16:55:44+02:00</time>
      </trkpt>
      <trkpt lat="45.01223" lon="2.71668">
        <ele>1432</ele>
        <time>2022-10-03T16:56:10+02:00</time>
      </trkpt>
      <trkpt lat="45.01208" lon="2.71644">
        <ele>1431</ele>
        <time>2022-10-03T16:56:36+02:00</time>
      </trkpt>
      <trkpt lat="45.01189" lon="2.71625">
        <ele>1430</ele>
        <time>2022-10-03T16:56:59+02:00</time>
      </trkpt>
      <trkpt lat="45.01175" lon="2.716">
        <ele>1430</ele>
        <time>2022-10-03T16:57:23+02:00</time>
      </trkpt>
      <trkpt lat="45.01158" lon="2.71578">
        <ele>1428</ele>
        <time>2022-10-03T16:57:48+02:00</time>
      </trkpt>
      <trkpt lat="45.0114" lon="2.71558">
        <ele>1425</ele>
        <time>2022-10-03T16:58:13+02:00</time>
      </trkpt>
      <trkpt lat="45.01106" lon="2.71518">
        <ele>1418</ele>
        <time>2022-10-03T16:59:04+02:00</time>
      </trkpt>
      <trkpt lat="45.01089" lon="2.71496">
        <ele>1413</ele>
        <time>2022-10-03T16:59:29+02:00</time>
      </trkpt>
      <trkpt lat="45.01072" lon="2.71475">
        <ele>1412</ele>
        <time>2022-10-03T16:59:52+02:00</time>
      </trkpt>
      <trkpt lat="45.01051" lon="2.71464">
        <ele>1409</ele>
        <time>2022-10-03T17:00:16+02:00</time>
      </trkpt>
      <trkpt lat="45.01032" lon="2.71445">
        <ele>1407</ele>
        <time>2022-10-03T17:00:41+02:00</time>
      </trkpt>
      <trkpt lat="45.01011" lon="2.71435">
        <ele>1406</ele>
        <time>2022-10-03T17:01:04+02:00</time>
      </trkpt>
      <trkpt lat="45.0099" lon="2.71422">
        <ele>1405</ele>
        <time>2022-10-03T17:01:30+02:00</time>
      </trkpt>
      <trkpt lat="45.00968" lon="2.71414">
        <ele>1402</ele>
        <time>2022-10-03T17:01:57+02:00</time>
      </trkpt>
      <trkpt lat="45.00949" lon="2.71395">
        <ele>1401</ele>
        <time>2022-10-03T17:02:29+02:00</time>
      </trkpt>
      <trkpt lat="45.00929" lon="2.71378">
        <ele>1396</ele>
        <time>2022-10-03T17:02:55+02:00</time>
      </trkpt>
      <trkpt lat="45.00909" lon="2.71362">
        <ele>1393</ele>
        <time>2022-10-03T17:03:17+02:00</time>
      </trkpt>
      <trkpt lat="45.00888" lon="2.71347">
        <ele>1392</ele>
        <time>2022-10-03T17:03:40+02:00</time>
      </trkpt>
      <trkpt lat="45.00868" lon="2.71335">
        <ele>1390</ele>
        <time>2022-10-03T17:04:01+02:00</time>
      </trkpt>
      <trkpt lat="45.00845" lon="2.71327">
        <ele>1389</ele>
        <time>2022-10-03T17:04:24+02:00</time>
      </trkpt>
      <trkpt lat="45.00826" lon="2.71308">
        <ele>1388</ele>
        <time>2022-10-03T17:04:58+02:00</time>
      </trkpt>
      <trkpt lat="45.00807" lon="2.71289">
        <ele>1387</ele>
        <time>2022-10-03T17:05:23+02:00</time>
      </trkpt>
      <trkpt lat="45.00786" lon="2.71276">
        <ele>1384</ele>
        <time>2022-10-03T17:05:47+02:00</time>
      </trkpt>
      <trkpt lat="45.00765" lon="2.71263">
        <ele>1385</ele>
        <time>2022-10-03T17:06:14+02:00</time>
      </trkpt>
      <trkpt lat="45.00746" lon="2.71244">
        <ele>1382</ele>
        <time>2022-10-03T17:06:39+02:00</time>
      </trkpt>
      <trkpt lat="45.00729" lon="2.71223">
        <ele>1380</ele>
        <time>2022-10-03T17:07:03+02:00</time>
      </trkpt>
      <trkpt lat="45.00709" lon="2.71208">
        <ele>1380</ele>
        <time>2022-10-03T17:07:27+02:00</time>
      </trkpt>
      <trkpt lat="45.0069" lon="2.71191">
        <ele>1379</ele>
        <time>2022-10-03T17:07:51+02:00</time>
      </trkpt>
      <trkpt lat="45.00671" lon="2.71172">
        <ele>1375</ele>
        <time>2022-10-03T17:08:16+02:00</time>
      </trkpt>
      <trkpt lat="45.00651" lon="2.71157">
        <ele>1374</ele>
        <time>2022-10-03T17:08:41+02:00</time>
      </trkpt>
      <trkpt lat="45.00633" lon="2.71135">
        <ele>1372</ele>
        <time>2022-10-03T17:09:09+02:00</time>
      </trkpt>
      <trkpt lat="45.00621" lon="2.71108">
        <ele>1366</ele>
        <time>2022-10-03T17:10:08+02:00</time>
      </trkpt>
      <trkpt lat="45.0061" lon="2.7108">
        <ele>1365</ele>
        <time>2022-10-03T17:10:34+02:00</time>
      </trkpt>
      <trkpt lat="45.00596" lon="2.71053">
        <ele>1361</ele>
        <time>2022-10-03T17:10:57+02:00</time>
      </trkpt>
      <trkpt lat="45.00587" lon="2.71023">
        <ele>1358</ele>
        <time>2022-10-03T17:11:25+02:00</time>
      </trkpt>
      <trkpt lat="45.00578" lon="2.70994">
        <ele>1352</ele>
        <time>2022-10-03T17:11:55+02:00</time>
      </trkpt>
      <trkpt lat="45.00569" lon="2.70963">
        <ele>1353</ele>
        <time>2022-10-03T17:12:21+02:00</time>
      </trkpt>
      <trkpt lat="45.00563" lon="2.70932">
        <ele>1354</ele>
        <time>2022-10-03T17:12:44+02:00</time>
      </trkpt>
      <trkpt lat="45.00558" lon="2.70901">
        <ele>1353</ele>
        <time>2022-10-03T17:13:08+02:00</time>
      </trkpt>
      <trkpt lat="45.00553" lon="2.7087">
        <ele>1354</ele>
        <time>2022-10-03T17:13:33+02:00</time>
      </trkpt>
      <trkpt lat="45.00545" lon="2.70839">
        <ele>1356</ele>
        <time>2022-10-03T17:15:39+02:00</time>
      </trkpt>
      <trkpt lat="45.00534" lon="2.70778">
        <ele>1347</ele>
        <time>2022-10-03T17:16:31+02:00</time>
      </trkpt>
      <trkpt lat="45.00529" lon="2.70747">
        <ele>1342</ele>
        <time>2022-10-03T17:16:55+02:00</time>
      </trkpt>
      <trkpt lat="45.0051" lon="2.70688">
        <ele>1338</ele>
        <time>2022-10-03T17:17:46+02:00</time>
      </trkpt>
      <trkpt lat="45.00499" lon="2.70659">
        <ele>1334</ele>
        <time>2022-10-03T17:18:13+02:00</time>
      </trkpt>
      <trkpt lat="45.00494" lon="2.70628">
        <ele>1331</ele>
        <time>2022-10-03T17:18:36+02:00</time>
      </trkpt>
      <trkpt lat="45.00489" lon="2.70596">
        <ele>1332</ele>
        <time>2022-10-03T17:18:57+02:00</time>
      </trkpt>
      <trkpt lat="45.00481" lon="2.70566">
        <ele>1333</ele>
        <time>2022-10-03T17:19:40+02:00</time>
      </trkpt>
      <trkpt lat="45.00477" lon="2.70534">
        <ele>1338</ele>
        <time>2022-10-03T17:20:21+02:00</time>
      </trkpt>
      <trkpt lat="45.00467" lon="2.70505">
        <ele>1343</ele>
        <time>2022-10-03T17:20:46+02:00</time>
      </trkpt>
      <trkpt lat="45.00454" lon="2.70478">
        <ele>1339</ele>
        <time>2022-10-03T17:21:11+02:00</time>
      </trkpt>
      <trkpt lat="45.00439" lon="2.70452">
        <ele>1339</ele>
        <time>2022-10-03T17:21:37+02:00</time>
      </trkpt>
      <trkpt lat="45.00424" lon="2.70427">
        <ele>1336</ele>
        <time>2022-10-03T17:22:01+02:00</time>
      </trkpt>
      <trkpt lat="45.0041" lon="2.70402">
        <ele>1336</ele>
        <time>2022-10-03T17:22:29+02:00</time>
      </trkpt>
      <trkpt lat="45.00394" lon="2.70378">
        <ele>1336</ele>
        <time>2022-10-03T17:23:24+02:00</time>
      </trkpt>
      <trkpt lat="45.00376" lon="2.70358">
        <ele>1336</ele>
        <time>2022-10-03T17:23:47+02:00</time>
      </trkpt>
      <trkpt lat="45.00361" lon="2.70335">
        <ele>1335</ele>
        <time>2022-10-03T17:24:10+02:00</time>
      </trkpt>
      <trkpt lat="45.00347" lon="2.7031">
        <ele>1333</ele>
        <time>2022-10-03T17:24:35+02:00</time>
      </trkpt>
      <trkpt lat="45.00331" lon="2.70285">
        <ele>1330</ele>
        <time>2022-10-03T17:25:04+02:00</time>
      </trkpt>
      <trkpt lat="45.00318" lon="2.70259">
        <ele>1327</ele>
        <time>2022-10-03T17:25:38+02:00</time>
      </trkpt>
      <trkpt lat="45.00308" lon="2.7023">
        <ele>1324</ele>
        <time>2022-10-03T17:26:05+02:00</time>
      </trkpt>
      <trkpt lat="45.00301" lon="2.70199">
        <ele>1322</ele>
        <time>2022-10-03T17:26:27+02:00</time>
      </trkpt>
      <trkpt lat="45.0029" lon="2.70171">
        <ele>1324</ele>
        <time>2022-10-03T17:26:52+02:00</time>
      </trkpt>
      <trkpt lat="45.0028" lon="2.70142">
        <ele>1325</ele>
        <time>2022-10-03T17:27:17+02:00</time>
      </trkpt>
      <trkpt lat="45.00267" lon="2.70115">
        <ele>1320</ele>
        <time>2022-10-03T17:27:44+02:00</time>
      </trkpt>
      <trkpt lat="45.00256" lon="2.70086">
        <ele>1318</ele>
        <time>2022-10-03T17:28:06+02:00</time>
      </trkpt>
      <trkpt lat="45.00243" lon="2.70059">
        <ele>1320</ele>
        <time>2022-10-03T17:28:31+02:00</time>
      </trkpt>
      <trkpt lat="45.00231" lon="2.70032">
        <ele>1323</ele>
        <time>2022-10-03T17:29:00+02:00</time>
      </trkpt>
      <trkpt lat="45.00222" lon="2.70002">
        <ele>1322</ele>
        <time>2022-10-03T17:29:26+02:00</time>
      </trkpt>
      <trkpt lat="45.00211" lon="2.69972">
        <ele>1320</ele>
        <time>2022-10-03T17:29:54+02:00</time>
      </trkpt>
      <trkpt lat="45.00201" lon="2.69944">
        <ele>1320</ele>
        <time>2022-10-03T17:30:16+02:00</time>
      </trkpt>
      <trkpt lat="45.0019" lon="2.69916">
        <ele>1318</ele>
        <time>2022-10-03T17:30:36+02:00</time>
      </trkpt>
      <trkpt lat="45.00179" lon="2.69888">
        <ele>1320</ele>
        <time>2022-10-03T17:31:01+02:00</time>
      </trkpt>
      <trkpt lat="45.00152" lon="2.69837">
        <ele>1320</ele>
        <time>2022-10-03T17:31:50+02:00</time>
      </trkpt>
      <trkpt lat="45.00139" lon="2.69811">
        <ele>1324</ele>
        <time>2022-10-03T17:32:15+02:00</time>
      </trkpt>
      <trkpt lat="45.00126" lon="2.69784">
        <ele>1325</ele>
        <time>2022-10-03T17:33:08+02:00</time>
      </trkpt>
      <trkpt lat="45.00113" lon="2.69758">
        <ele>1327</ele>
        <time>2022-10-03T17:33:32+02:00</time>
      </trkpt>
      <trkpt lat="45.00101" lon="2.69731">
        <ele>1331</ele>
        <time>2022-10-03T17:34:01+02:00</time>
      </trkpt>
      <trkpt lat="45.0009" lon="2.69703">
        <ele>1332</ele>
        <time>2022-10-03T17:34:40+02:00</time>
      </trkpt>
      <trkpt lat="45.00078" lon="2.69675">
        <ele>1332</ele>
        <time>2022-10-03T17:35:10+02:00</time>
      </trkpt>
      <trkpt lat="45.00068" lon="2.69647">
        <ele>1332</ele>
        <time>2022-10-03T17:35:38+02:00</time>
      </trkpt>
      <trkpt lat="45.00054" lon="2.69622">
        <ele>1335</ele>
        <time>2022-10-03T17:36:07+02:00</time>
      </trkpt>
      <trkpt lat="45.00037" lon="2.69598">
        <ele>1337</ele>
        <time>2022-10-03T17:36:52+02:00</time>
      </trkpt>
      <trkpt lat="45.00019" lon="2.69579">
        <ele>1337</ele>
        <time>2022-10-03T17:37:59+02:00</time>
      </trkpt>
      <trkpt lat="45.00003" lon="2.69556">
        <ele>1338</ele>
        <time>2022-10-03T17:38:25+02:00</time>
      </trkpt>
      <trkpt lat="44.99989" lon="2.6953">
        <ele>1339</ele>
        <time>2022-10-03T17:38:52+02:00</time>
      </trkpt>
      <trkpt lat="44.99977" lon="2.69503">
        <ele>1341</ele>
        <time>2022-10-03T17:39:15+02:00</time>
      </trkpt>
      <trkpt lat="44.99965" lon="2.69474">
        <ele>1341</ele>
        <time>2022-10-03T17:39:35+02:00</time>
      </trkpt>
      <trkpt lat="44.99953" lon="2.69447">
        <ele>1341</ele>
        <time>2022-10-03T17:40:03+02:00</time>
      </trkpt>
      <trkpt lat="44.99939" lon="2.69422">
        <ele>1340</ele>
        <time>2022-10-03T17:40:28+02:00</time>
      </trkpt>
      <trkpt lat="44.99923" lon="2.69397">
        <ele>1344</ele>
        <time>2022-10-03T17:40:53+02:00</time>
      </trkpt>
      <trkpt lat="44.9991" lon="2.6937">
        <ele>1347</ele>
        <time>2022-10-03T17:41:20+02:00</time>
      </trkpt>
      <trkpt lat="44.99896" lon="2.69345">
        <ele>1352</ele>
        <time>2022-10-03T17:41:48+02:00</time>
      </trkpt>
      <trkpt lat="44.9986" lon="2.69306">
        <ele>1353</ele>
        <time>2022-10-03T17:44:01+02:00</time>
      </trkpt>
      <trkpt lat="44.9984" lon="2.69288">
        <ele>1360</ele>
        <time>2022-10-03T17:44:29+02:00</time>
      </trkpt>
    </trkseg>
  </trk>
</gpx>